BAW26W KMCO-EGLL
Flight info
| Callsign | BAW26W |
|---|---|
| Flight time | N/A |
| Altitude | 32000 |
| Route | JEEMY4 PAINN SHRKS BERTT GURGE RAYVO Q87 NOWAE FAK BOOYA Q34 RBV Q22 LLUND BIZEX Q133 CAM BEEHS JIGZY TAFFY N693A NEEKO 5350N 5440N 5430N 5420N DOGAL BEXET ENJEX AVZAC INFEC JETZI AMFUL ORZEB P2 SIRIC |
| Aircraft | B77W/H-SDE1E2E3FGHIJ2J3J4J5M1RWXY/LB1D1 |
Departure
| Time | 2026-04-25 13:57 |
|---|---|
| Airport | Orlando International Airport (KMCO) |
Arrival
| Time | N/A |
|---|---|
| Airport | London Heathrow Airport (EGLL) |
| Time | Latitude | Longitude | Altitude | Speed | Heading |
|---|---|---|---|---|---|
| 2026-04-25 12:39 | 28.41483 | -81.31472 | 93 ft | 0 kts | 98° |
| 2026-04-25 13:26 | 28.41484 | -81.31485 | 93 ft | 2 kts | 98° |
| 2026-04-25 13:26 | 28.41486 | -81.31502 | 93 ft | 2 kts | 97° |
| 2026-04-25 13:27 | 28.41486 | -81.31519 | 93 ft | 2 kts | 72° |
| 2026-04-25 13:27 | 28.41479 | -81.31534 | 93 ft | 2 kts | 47° |
| 2026-04-25 13:27 | 28.41467 | -81.31544 | 93 ft | 2 kts | 25° |
| 2026-04-25 13:27 | 28.41453 | -81.31549 | 93 ft | 2 kts | 2° |
| 2026-04-25 13:28 | 28.41438 | -81.31549 | 93 ft | 2 kts | 1° |
| 2026-04-25 13:28 | 28.41434 | -81.31549 | 93 ft | 2 kts | 3° |
| 2026-04-25 13:28 | 28.41416 | -81.31551 | 93 ft | 1 kts | 4° |
| 2026-04-25 13:28 | 28.41414 | -81.31551 | 93 ft | 0 kts | 4° |
| 2026-04-25 13:32 | 28.41415 | -81.31551 | 93 ft | 0 kts | 4° |
| 2026-04-25 13:32 | 28.41430 | -81.31550 | 93 ft | 3 kts | 4° |
| 2026-04-25 13:33 | 28.41464 | -81.31547 | 93 ft | 5 kts | 4° |
| 2026-04-25 13:33 | 28.41496 | -81.31543 | 93 ft | 4 kts | 7° |
| 2026-04-25 13:33 | 28.41520 | -81.31540 | 93 ft | 2 kts | 7° |
| 2026-04-25 13:33 | 28.41534 | -81.31538 | 93 ft | 3 kts | 7° |
| 2026-04-25 13:34 | 28.41566 | -81.31539 | 93 ft | 4 kts | 348° |
| 2026-04-25 13:34 | 28.41592 | -81.31554 | 93 ft | 4 kts | 321° |
| 2026-04-25 13:34 | 28.41608 | -81.31574 | 93 ft | 2 kts | 305° |
| 2026-04-25 13:34 | 28.41617 | -81.31590 | 93 ft | 2 kts | 301° |
| 2026-04-25 13:35 | 28.41632 | -81.31621 | 94 ft | 5 kts | 298° |
| 2026-04-25 13:35 | 28.41648 | -81.31658 | 94 ft | 4 kts | 294° |
| 2026-04-25 13:35 | 28.41660 | -81.31689 | 94 ft | 3 kts | 294° |
| 2026-04-25 13:35 | 28.41669 | -81.31713 | 94 ft | 3 kts | 294° |
| 2026-04-25 13:36 | 28.41680 | -81.31737 | 95 ft | 4 kts | 298° |
| 2026-04-25 13:36 | 28.41696 | -81.31767 | 95 ft | 3 kts | 309° |
| 2026-04-25 13:36 | 28.41713 | -81.31782 | 95 ft | 2 kts | 336° |
| 2026-04-25 13:36 | 28.41722 | -81.31786 | 95 ft | 1 kts | 334° |
| 2026-04-25 13:37 | 28.41738 | -81.31800 | 95 ft | 5 kts | 310° |
| 2026-04-25 13:37 | 28.41752 | -81.31844 | 95 ft | 6 kts | 275° |
| 2026-04-25 13:37 | 28.41752 | -81.31894 | 96 ft | 7 kts | 270° |
| 2026-04-25 13:37 | 28.41755 | -81.31951 | 96 ft | 6 kts | 287° |
| 2026-04-25 13:38 | 28.41800 | -81.31979 | 96 ft | 9 kts | 354° |
| 2026-04-25 13:38 | 28.41878 | -81.31982 | 97 ft | 11 kts | 359° |
| 2026-04-25 13:38 | 28.41950 | -81.31984 | 97 ft | 9 kts | 359° |
| 2026-04-25 13:38 | 28.42009 | -81.31983 | 98 ft | 7 kts | 0° |
| 2026-04-25 13:39 | 28.42058 | -81.31983 | 98 ft | 6 kts | 360° |
| 2026-04-25 13:39 | 28.42084 | -81.31984 | 98 ft | 0 kts | 359° |
| 2026-04-25 13:40 | 28.42092 | -81.31984 | 98 ft | 3 kts | 359° |
| 2026-04-25 13:40 | 28.42131 | -81.31985 | 98 ft | 5 kts | 359° |
| 2026-04-25 13:40 | 28.42166 | -81.31985 | 98 ft | 4 kts | 359° |
| 2026-04-25 13:40 | 28.42169 | -81.31986 | 98 ft | 0 kts | 359° |
| 2026-04-25 13:45 | 28.42172 | -81.31986 | 98 ft | 1 kts | 359° |
| 2026-04-25 13:45 | 28.42207 | -81.31986 | 98 ft | 8 kts | 0° |
| 2026-04-25 13:45 | 28.42285 | -81.31986 | 98 ft | 13 kts | 359° |
| 2026-04-25 13:46 | 28.42383 | -81.31987 | 98 ft | 14 kts | 359° |
| 2026-04-25 13:46 | 28.42485 | -81.31988 | 98 ft | 15 kts | 359° |
| 2026-04-25 13:46 | 28.42593 | -81.31989 | 98 ft | 16 kts | 359° |
| 2026-04-25 13:46 | 28.42706 | -81.31991 | 98 ft | 15 kts | 359° |
| 2026-04-25 13:47 | 28.42804 | -81.31992 | 98 ft | 13 kts | 359° |
| 2026-04-25 13:47 | 28.42895 | -81.31992 | 98 ft | 13 kts | 359° |
| 2026-04-25 13:47 | 28.42991 | -81.31994 | 98 ft | 14 kts | 359° |
| 2026-04-25 13:47 | 28.43095 | -81.31995 | 98 ft | 15 kts | 359° |
| 2026-04-25 13:48 | 28.43209 | -81.31996 | 98 ft | 17 kts | 360° |
| 2026-04-25 13:48 | 28.43331 | -81.31998 | 98 ft | 17 kts | 360° |
| 2026-04-25 13:48 | 28.43459 | -81.31998 | 98 ft | 17 kts | 359° |
| 2026-04-25 13:48 | 28.43573 | -81.32000 | 98 ft | 15 kts | 359° |
| 2026-04-25 13:49 | 28.43670 | -81.32001 | 98 ft | 12 kts | 359° |
| 2026-04-25 13:49 | 28.43755 | -81.32001 | 99 ft | 12 kts | 359° |
| 2026-04-25 13:49 | 28.43848 | -81.32002 | 99 ft | 14 kts | 359° |
| 2026-04-25 13:49 | 28.43954 | -81.32004 | 99 ft | 15 kts | 359° |
| 2026-04-25 13:50 | 28.44066 | -81.32004 | 99 ft | 16 kts | 360° |
| 2026-04-25 13:50 | 28.44178 | -81.32006 | 99 ft | 14 kts | 360° |
| 2026-04-25 13:50 | 28.44277 | -81.32007 | 99 ft | 13 kts | 360° |
| 2026-04-25 13:50 | 28.44371 | -81.32008 | 99 ft | 13 kts | 360° |
| 2026-04-25 13:51 | 28.44461 | -81.32009 | 99 ft | 12 kts | 359° |
| 2026-04-25 13:51 | 28.44548 | -81.32011 | 99 ft | 12 kts | 359° |
| 2026-04-25 13:51 | 28.44618 | -81.32011 | 99 ft | 1 kts | 359° |
| 2026-04-25 13:51 | 28.44620 | -81.32011 | 99 ft | 0 kts | 359° |
| 2026-04-25 13:52 | 28.44649 | -81.32012 | 99 ft | 9 kts | 359° |
| 2026-04-25 13:52 | 28.44721 | -81.32012 | 99 ft | 10 kts | 360° |
| 2026-04-25 13:53 | 28.44778 | -81.32013 | 99 ft | 4 kts | 359° |
| 2026-04-25 13:53 | 28.44814 | -81.32027 | 99 ft | 5 kts | 312° |
| 2026-04-25 13:53 | 28.44825 | -81.32071 | 99 ft | 5 kts | 269° |
| 2026-04-25 13:53 | 28.44825 | -81.32091 | 99 ft | 0 kts | 270° |
| 2026-04-25 13:55 | 28.44824 | -81.32107 | 99 ft | 4 kts | 269° |
| 2026-04-25 13:55 | 28.44824 | -81.32164 | 99 ft | 7 kts | 269° |
| 2026-04-25 13:55 | 28.44814 | -81.32214 | 99 ft | 5 kts | 232° |
| 2026-04-25 13:55 | 28.44785 | -81.32228 | 99 ft | 3 kts | 183° |
| 2026-04-25 13:56 | 28.44782 | -81.32228 | 99 ft | 0 kts | 182° |
| 2026-04-25 13:56 | 28.44780 | -81.32228 | 99 ft | 1 kts | 182° |
| 2026-04-25 13:56 | 28.44693 | -81.32229 | 100 ft | 37 kts | 180° |
| 2026-04-25 13:57 | 28.44174 | -81.32224 | 100 ft | 109 kts | 179° |
| 2026-04-25 13:57 | 28.43561 | -81.32217 | 99 ft | 152 kts | 179° |
| 2026-04-25 13:57 | 28.41861 | -81.32201 | 419 ft | 200 kts | 179° |
| 2026-04-25 13:57 | 28.40442 | -81.32177 | 1205 ft | 209 kts | 180° |
| 2026-04-25 13:58 | 28.38998 | -81.32309 | 1676 ft | 221 kts | 195° |
| 2026-04-25 13:58 | 28.37583 | -81.33169 | 2075 ft | 238 kts | 216° |
| 2026-04-25 13:58 | 28.36164 | -81.34248 | 2529 ft | 254 kts | 213° |
| 2026-04-25 13:58 | 28.34802 | -81.35563 | 3184 ft | 261 kts | 226° |
| 2026-04-25 13:59 | 28.33613 | -81.37151 | 3926 ft | 265 kts | 240° |
| 2026-04-25 13:59 | 28.33010 | -81.39111 | 4619 ft | 269 kts | 261° |
| 2026-04-25 13:59 | 28.32737 | -81.41235 | 5401 ft | 271 kts | 263° |
| 2026-04-25 13:59 | 28.32500 | -81.43346 | 6126 ft | 273 kts | 264° |
| 2026-04-25 14:00 | 28.32450 | -81.44069 | 6357 ft | 274 kts | 269° |
| 2026-04-25 14:00 | 28.32529 | -81.47702 | 6947 ft | 278 kts | 273° |
| 2026-04-25 14:00 | 28.32797 | -81.49859 | 6946 ft | 275 kts | 292° |
| 2026-04-25 14:00 | 28.33892 | -81.51694 | 7265 ft | 287 kts | 319° |
| 2026-04-25 14:01 | 28.35395 | -81.53065 | 8266 ft | 277 kts | 323° |
| 2026-04-25 14:01 | 28.36941 | -81.54372 | 9056 ft | 276 kts | 323° |
| 2026-04-25 14:01 | 28.38555 | -81.55514 | 9649 ft | 281 kts | 340° |
| 2026-04-25 14:01 | 28.40497 | -81.55978 | 10278 ft | 286 kts | 352° |
| 2026-04-25 14:02 | 28.42516 | -81.56223 | 10644 ft | 300 kts | 353° |
| 2026-04-25 14:02 | 28.44660 | -81.56381 | 10945 ft | 318 kts | 3° |
| 2026-04-25 14:02 | 28.46907 | -81.55902 | 11270 ft | 335 kts | 12° |
| 2026-04-25 14:02 | 28.47681 | -81.55680 | 11388 ft | 341 kts | 13° |
| 2026-04-25 14:03 | 28.51652 | -81.54493 | 12020 ft | 364 kts | 13° |
| 2026-04-25 14:03 | 28.54125 | -81.53749 | 12452 ft | 376 kts | 13° |
| 2026-04-25 14:03 | 28.56692 | -81.52975 | 13100 ft | 381 kts | 13° |
| 2026-04-25 14:03 | 28.59261 | -81.52200 | 13809 ft | 383 kts | 13° |
| 2026-04-25 14:04 | 28.61838 | -81.51421 | 14510 ft | 386 kts | 13° |
| 2026-04-25 14:04 | 28.64463 | -81.50629 | 15091 ft | 392 kts | 13° |
| 2026-04-25 14:04 | 28.67101 | -81.49831 | 15701 ft | 397 kts | 13° |
| 2026-04-25 14:04 | 28.69791 | -81.49017 | 16332 ft | 400 kts | 13° |
| 2026-04-25 14:05 | 28.72473 | -81.48206 | 16927 ft | 404 kts | 13° |
| 2026-04-25 14:05 | 28.75227 | -81.47372 | 17517 ft | 408 kts | 13° |
| 2026-04-25 14:05 | 28.78017 | -81.46526 | 18098 ft | 412 kts | 13° |
| 2026-04-25 14:05 | 28.80820 | -81.45677 | 18679 ft | 416 kts | 13° |
| 2026-04-25 14:06 | 28.83625 | -81.44826 | 19273 ft | 419 kts | 13° |
| 2026-04-25 14:06 | 28.86452 | -81.43967 | 19890 ft | 421 kts | 13° |
| 2026-04-25 14:06 | 28.89281 | -81.43108 | 20464 ft | 424 kts | 13° |
| 2026-04-25 14:06 | 28.92168 | -81.42231 | 20994 ft | 428 kts | 12° |
| 2026-04-25 14:07 | 28.95098 | -81.41637 | 21488 ft | 428 kts | 2° |
| 2026-04-25 14:07 | 28.98074 | -81.41612 | 21994 ft | 429 kts | 354° |
| 2026-04-25 14:07 | 29.01105 | -81.41921 | 22522 ft | 431 kts | 353° |
| 2026-04-25 14:07 | 29.04067 | -81.42252 | 23007 ft | 434 kts | 352° |
| 2026-04-25 14:08 | 29.07106 | -81.42593 | 23512 ft | 436 kts | 353° |
| 2026-04-25 14:08 | 29.10146 | -81.42932 | 23965 ft | 440 kts | 353° |
| 2026-04-25 14:08 | 29.13241 | -81.43240 | 24445 ft | 442 kts | 354° |
| 2026-04-25 14:08 | 29.16319 | -81.43529 | 24901 ft | 445 kts | 354° |
| 2026-04-25 14:09 | 29.19414 | -81.43821 | 25324 ft | 449 kts | 354° |
| 2026-04-25 14:09 | 29.22536 | -81.44115 | 25786 ft | 451 kts | 354° |
| 2026-04-25 14:09 | 29.25678 | -81.44412 | 26256 ft | 454 kts | 354° |
| 2026-04-25 14:09 | 29.27812 | -81.44614 | 26536 ft | 456 kts | 354° |
| 2026-04-25 14:10 | 29.32036 | -81.45015 | 27116 ft | 459 kts | 354° |
| 2026-04-25 14:10 | 29.35240 | -81.45319 | 27580 ft | 461 kts | 354° |
| 2026-04-25 14:10 | 29.38470 | -81.45627 | 28043 ft | 463 kts | 355° |
| 2026-04-25 14:10 | 29.41691 | -81.45933 | 28417 ft | 467 kts | 355° |
| 2026-04-25 14:11 | 29.44969 | -81.46246 | 28834 ft | 469 kts | 355° |
| 2026-04-25 14:11 | 29.48202 | -81.46555 | 29256 ft | 472 kts | 355° |
| 2026-04-25 14:11 | 29.51489 | -81.46869 | 29754 ft | 472 kts | 355° |
| 2026-04-25 14:11 | 29.54753 | -81.47180 | 30372 ft | 469 kts | 355° |
| 2026-04-25 14:12 | 29.58005 | -81.47491 | 30870 ft | 469 kts | 355° |
| 2026-04-25 14:12 | 29.64567 | -81.48090 | 30949 ft | 468 kts | 355° |
| 2026-04-25 14:13 | 29.71016 | -81.48673 | 30951 ft | 467 kts | 355° |
| 2026-04-25 14:13 | 29.77523 | -81.49262 | 30953 ft | 467 kts | 355° |
| 2026-04-25 14:14 | 29.84031 | -81.49854 | 30956 ft | 467 kts | 355° |
| 2026-04-25 14:14 | 29.90495 | -81.50869 | 30953 ft | 467 kts | 345° |
| 2026-04-25 14:15 | 29.96709 | -81.53040 | 30959 ft | 469 kts | 343° |
| 2026-04-25 14:15 | 30.02974 | -81.55284 | 30957 ft | 467 kts | 343° |
| 2026-04-25 14:16 | 30.09180 | -81.57507 | 30956 ft | 468 kts | 343° |
| 2026-04-25 14:16 | 30.15394 | -81.59735 | 30965 ft | 467 kts | 343° |
| 2026-04-25 14:17 | 30.21622 | -81.61970 | 30963 ft | 469 kts | 343° |
| 2026-04-25 14:17 | 30.27851 | -81.64208 | 30962 ft | 468 kts | 343° |
| 2026-04-25 14:18 | 30.34026 | -81.66430 | 30964 ft | 468 kts | 343° |
| 2026-04-25 14:18 | 30.40294 | -81.68687 | 30959 ft | 467 kts | 343° |
| 2026-04-25 14:19 | 30.46518 | -81.70933 | 30961 ft | 467 kts | 343° |
| 2026-04-25 14:19 | 30.52753 | -81.73184 | 30958 ft | 468 kts | 343° |
| 2026-04-25 14:20 | 30.58976 | -81.75399 | 30948 ft | 466 kts | 346° |
| 2026-04-25 14:20 | 30.65434 | -81.76194 | 30955 ft | 467 kts | 2° |
| 2026-04-25 14:21 | 30.71916 | -81.75465 | 30955 ft | 466 kts | 6° |
| 2026-04-25 14:21 | 30.78357 | -81.74653 | 30953 ft | 467 kts | 6° |
| 2026-04-25 14:22 | 30.84830 | -81.73840 | 31028 ft | 472 kts | 6° |
| 2026-04-25 14:22 | 30.88095 | -81.73430 | 31522 ft | 471 kts | 6° |
| 2026-04-25 14:22 | 30.91327 | -81.73024 | 32239 ft | 464 kts | 5° |
| 2026-04-25 14:22 | 30.94521 | -81.72623 | 32796 ft | 461 kts | 5° |
| 2026-04-25 14:23 | 30.97736 | -81.72220 | 32940 ft | 464 kts | 5° |
| 2026-04-25 14:23 | 31.04208 | -81.71407 | 32946 ft | 463 kts | 5° |
| 2026-04-25 14:24 | 31.10593 | -81.70605 | 32951 ft | 466 kts | 5° |
| 2026-04-25 14:24 | 31.16959 | -81.69641 | 32950 ft | 462 kts | 12° |
| 2026-04-25 14:25 | 31.23167 | -81.67498 | 32954 ft | 465 kts | 16° |
| 2026-04-25 14:25 | 31.29323 | -81.65245 | 32954 ft | 464 kts | 16° |
| 2026-04-25 14:26 | 31.35506 | -81.62981 | 32952 ft | 464 kts | 16° |
| 2026-04-25 14:26 | 31.41711 | -81.60709 | 32952 ft | 464 kts | 16° |
| 2026-04-25 14:27 | 31.47872 | -81.58450 | 32949 ft | 463 kts | 16° |
| 2026-04-25 14:27 | 31.54018 | -81.56193 | 32946 ft | 463 kts | 16° |
| 2026-04-25 14:28 | 31.60198 | -81.53921 | 32946 ft | 464 kts | 15° |
| 2026-04-25 14:28 | 31.66370 | -81.51650 | 32943 ft | 463 kts | 15° |
| 2026-04-25 14:29 | 31.72549 | -81.49372 | 32945 ft | 463 kts | 15° |
| 2026-04-25 14:29 | 31.78693 | -81.47104 | 32939 ft | 464 kts | 15° |
| 2026-04-25 14:30 | 31.84863 | -81.44823 | 32940 ft | 462 kts | 15° |
| 2026-04-25 14:30 | 31.94098 | -81.41404 | 32936 ft | 462 kts | 15° |
| 2026-04-25 14:31 | 32.00272 | -81.39114 | 32937 ft | 463 kts | 15° |
| 2026-04-25 14:31 | 32.06440 | -81.36823 | 32938 ft | 464 kts | 15° |
| 2026-04-25 14:32 | 32.12570 | -81.34543 | 32933 ft | 463 kts | 16° |
| 2026-04-25 14:32 | 32.18769 | -81.32234 | 32941 ft | 470 kts | 16° |
| 2026-04-25 14:33 | 32.25081 | -81.29881 | 32935 ft | 479 kts | 16° |
| 2026-04-25 14:33 | 32.31465 | -81.27495 | 32936 ft | 478 kts | 16° |
| 2026-04-25 14:34 | 32.37846 | -81.25108 | 32923 ft | 478 kts | 16° |
| 2026-04-25 14:34 | 32.44170 | -81.22736 | 32926 ft | 479 kts | 17° |
| 2026-04-25 14:35 | 32.50139 | -81.19278 | 32920 ft | 481 kts | 33° |
| 2026-04-25 14:35 | 32.55466 | -81.14294 | 32919 ft | 485 kts | 37° |
| 2026-04-25 14:36 | 32.60664 | -81.09251 | 32922 ft | 484 kts | 37° |
| 2026-04-25 14:36 | 32.65920 | -81.04140 | 32922 ft | 484 kts | 37° |
| 2026-04-25 14:37 | 32.71113 | -80.99083 | 32921 ft | 484 kts | 38° |
| 2026-04-25 14:37 | 32.76321 | -80.94003 | 32918 ft | 484 kts | 37° |
| 2026-04-25 14:38 | 32.81535 | -80.88909 | 32916 ft | 484 kts | 38° |
| 2026-04-25 14:38 | 32.86739 | -80.83816 | 32915 ft | 484 kts | 38° |
| 2026-04-25 14:39 | 32.91957 | -80.78702 | 32918 ft | 486 kts | 38° |
| 2026-04-25 14:39 | 32.97172 | -80.73583 | 32922 ft | 484 kts | 38° |
| 2026-04-25 14:40 | 33.02395 | -80.68447 | 32924 ft | 486 kts | 38° |
| 2026-04-25 14:40 | 33.07575 | -80.63346 | 32927 ft | 483 kts | 38° |
| 2026-04-25 14:41 | 33.12741 | -80.58251 | 32928 ft | 486 kts | 38° |
| 2026-04-25 14:41 | 33.17949 | -80.53106 | 32919 ft | 485 kts | 38° |
| 2026-04-25 14:42 | 33.22301 | -80.48800 | 32922 ft | 486 kts | 38° |
| 2026-04-25 14:42 | 33.28377 | -80.42779 | 32926 ft | 484 kts | 38° |
| 2026-04-25 14:43 | 33.33574 | -80.37620 | 32922 ft | 486 kts | 38° |
| 2026-04-25 14:43 | 33.38731 | -80.32494 | 32922 ft | 486 kts | 38° |
| 2026-04-25 14:44 | 33.43963 | -80.27283 | 32923 ft | 487 kts | 38° |
| 2026-04-25 14:44 | 33.49184 | -80.22075 | 32927 ft | 486 kts | 38° |
| 2026-04-25 14:45 | 33.54385 | -80.16879 | 32924 ft | 488 kts | 39° |
| 2026-04-25 14:45 | 33.59578 | -80.11683 | 32926 ft | 487 kts | 38° |
| 2026-04-25 14:46 | 33.64919 | -80.06619 | 32919 ft | 487 kts | 31° |
| 2026-04-25 14:46 | 33.70875 | -80.02816 | 32925 ft | 486 kts | 26° |
| 2026-04-25 14:47 | 33.75922 | -79.99762 | 32919 ft | 486 kts | 26° |
| 2026-04-25 14:47 | 33.83008 | -79.95458 | 32919 ft | 486 kts | 26° |
| 2026-04-25 14:48 | 33.89049 | -79.91778 | 32919 ft | 486 kts | 26° |
| 2026-04-25 14:48 | 33.95109 | -79.88077 | 32916 ft | 487 kts | 26° |
| 2026-04-25 14:49 | 34.01158 | -79.84377 | 32917 ft | 486 kts | 26° |
| 2026-04-25 14:49 | 34.07221 | -79.80660 | 32911 ft | 487 kts | 26° |
| 2026-04-25 14:50 | 34.13168 | -79.77009 | 32919 ft | 488 kts | 26° |
| 2026-04-25 14:50 | 34.19213 | -79.73291 | 32920 ft | 488 kts | 26° |
| 2026-04-25 14:51 | 34.25252 | -79.69571 | 32916 ft | 487 kts | 26° |
| 2026-04-25 14:51 | 34.31294 | -79.65843 | 32912 ft | 487 kts | 26° |
| 2026-04-25 14:52 | 34.37363 | -79.62092 | 32914 ft | 487 kts | 26° |
| 2026-04-25 14:52 | 34.42370 | -79.58993 | 32909 ft | 487 kts | 26° |
| 2026-04-25 14:53 | 34.49449 | -79.54604 | 32907 ft | 488 kts | 26° |
| 2026-04-25 14:53 | 34.55523 | -79.50831 | 32903 ft | 487 kts | 26° |
| 2026-04-25 14:54 | 34.61489 | -79.46851 | 32902 ft | 489 kts | 28° |
| 2026-04-25 14:54 | 34.67419 | -79.42837 | 32904 ft | 488 kts | 28° |
| 2026-04-25 14:55 | 34.73377 | -79.38804 | 32904 ft | 489 kts | 28° |
| 2026-04-25 14:55 | 34.79314 | -79.34779 | 32905 ft | 489 kts | 28° |
| 2026-04-25 14:56 | 34.85254 | -79.30749 | 32904 ft | 489 kts | 28° |
| 2026-04-25 14:56 | 34.91217 | -79.26698 | 32905 ft | 489 kts | 28° |
| 2026-04-25 14:57 | 34.97140 | -79.22668 | 32897 ft | 490 kts | 28° |
| 2026-04-25 14:57 | 35.03100 | -79.18607 | 32901 ft | 490 kts | 28° |
| 2026-04-25 14:58 | 35.09071 | -79.14532 | 32896 ft | 490 kts | 28° |
| 2026-04-25 14:58 | 35.14932 | -79.10525 | 32904 ft | 490 kts | 28° |
| 2026-04-25 14:59 | 35.20864 | -79.06463 | 32896 ft | 491 kts | 28° |
| 2026-04-25 14:59 | 35.26818 | -79.02380 | 32894 ft | 491 kts | 27° |
| 2026-04-25 15:00 | 35.32788 | -78.98278 | 32894 ft | 492 kts | 28° |
| 2026-04-25 15:00 | 35.38800 | -78.94140 | 32893 ft | 490 kts | 27° |
| 2026-04-25 15:01 | 35.44759 | -78.90032 | 32895 ft | 492 kts | 27° |
| 2026-04-25 15:01 | 35.50715 | -78.85919 | 32894 ft | 491 kts | 27° |
| 2026-04-25 15:02 | 35.56713 | -78.81770 | 32897 ft | 492 kts | 27° |
| 2026-04-25 15:02 | 35.62673 | -78.77640 | 32889 ft | 493 kts | 27° |
| 2026-04-25 15:03 | 35.68671 | -78.73476 | 32891 ft | 493 kts | 27° |
| 2026-04-25 15:03 | 35.74675 | -78.69300 | 32892 ft | 493 kts | 27° |
| 2026-04-25 15:04 | 35.80659 | -78.65131 | 32891 ft | 494 kts | 27° |
| 2026-04-25 15:04 | 35.86669 | -78.60938 | 32893 ft | 493 kts | 27° |
| 2026-04-25 15:05 | 35.92627 | -78.56772 | 32882 ft | 495 kts | 27° |
| 2026-04-25 15:06 | 36.01649 | -78.50451 | 32890 ft | 495 kts | 27° |
| 2026-04-25 15:06 | 36.07610 | -78.46265 | 32887 ft | 494 kts | 27° |
| 2026-04-25 15:07 | 36.13511 | -78.42114 | 32886 ft | 495 kts | 27° |
| 2026-04-25 15:07 | 36.19517 | -78.37882 | 32887 ft | 495 kts | 26° |
| 2026-04-25 15:08 | 36.25439 | -78.33702 | 32882 ft | 495 kts | 27° |
| 2026-04-25 15:08 | 36.31369 | -78.29508 | 32877 ft | 494 kts | 27° |
| 2026-04-25 15:09 | 36.37414 | -78.25390 | 32872 ft | 492 kts | 21° |
| 2026-04-25 15:09 | 36.47157 | -78.21566 | 32873 ft | 490 kts | 13° |
| 2026-04-25 15:10 | 36.53724 | -78.19199 | 32876 ft | 488 kts | 13° |
| 2026-04-25 15:11 | 36.63509 | -78.15658 | 32885 ft | 489 kts | 13° |
| 2026-04-25 15:11 | 36.70118 | -78.13258 | 32889 ft | 490 kts | 13° |
| 2026-04-25 15:12 | 36.79923 | -78.09688 | 32889 ft | 490 kts | 13° |
| 2026-04-25 15:12 | 36.84308 | -78.08087 | 32886 ft | 489 kts | 12° |
| 2026-04-25 15:13 | 36.96386 | -78.03670 | 32874 ft | 491 kts | 12° |
| 2026-04-25 15:14 | 37.02960 | -78.01260 | 32873 ft | 491 kts | 12° |
| 2026-04-25 15:14 | 37.09499 | -77.98858 | 32874 ft | 490 kts | 12° |
| 2026-04-25 15:15 | 37.15717 | -77.96570 | 32879 ft | 492 kts | 12° |
| 2026-04-25 15:15 | 37.22207 | -77.94177 | 32876 ft | 491 kts | 12° |
| 2026-04-25 15:16 | 37.28743 | -77.91763 | 32877 ft | 491 kts | 12° |
| 2026-04-25 15:16 | 37.38594 | -77.88117 | 32876 ft | 491 kts | 12° |
| 2026-04-25 15:17 | 37.48473 | -77.84450 | 32874 ft | 490 kts | 12° |
| 2026-04-25 15:18 | 37.54930 | -77.81744 | 32884 ft | 493 kts | 18° |
| 2026-04-25 15:18 | 37.64507 | -77.76719 | 32877 ft | 495 kts | 18° |
| 2026-04-25 15:19 | 37.68770 | -77.74474 | 32880 ft | 495 kts | 18° |
| 2026-04-25 15:19 | 37.77230 | -77.70013 | 32885 ft | 495 kts | 18° |
| 2026-04-25 15:20 | 37.83606 | -77.66646 | 32877 ft | 494 kts | 18° |
| 2026-04-25 15:20 | 37.89946 | -77.63291 | 32884 ft | 494 kts | 18° |
| 2026-04-25 15:21 | 37.96286 | -77.59931 | 32877 ft | 495 kts | 18° |
| 2026-04-25 15:21 | 38.02685 | -77.56535 | 32885 ft | 496 kts | 18° |
| 2026-04-25 15:22 | 38.09072 | -77.53136 | 32892 ft | 494 kts | 18° |
| 2026-04-25 15:22 | 38.15239 | -77.49850 | 32894 ft | 494 kts | 18° |
| 2026-04-25 15:23 | 38.21463 | -77.46528 | 32905 ft | 495 kts | 18° |
| 2026-04-25 15:23 | 38.27774 | -77.43151 | 32906 ft | 493 kts | 18° |
| 2026-04-25 15:24 | 38.34152 | -77.39734 | 32916 ft | 495 kts | 18° |
| 2026-04-25 15:24 | 38.39310 | -77.36449 | 32923 ft | 500 kts | 28° |
| 2026-04-25 15:25 | 38.42878 | -77.32788 | 32909 ft | 509 kts | 41° |
| 2026-04-25 15:25 | 38.45251 | -77.29549 | 32921 ft | 515 kts | 44° |
| 2026-04-25 15:25 | 38.50000 | -77.22718 | 32919 ft | 513 kts | 44° |
| 2026-04-25 15:26 | 38.54736 | -77.15877 | 32923 ft | 514 kts | 44° |
| 2026-04-25 15:26 | 38.59433 | -77.09077 | 32928 ft | 513 kts | 44° |
| 2026-04-25 15:27 | 38.64159 | -77.02223 | 32928 ft | 511 kts | 44° |
| 2026-04-25 15:28 | 38.71194 | -76.91993 | 32936 ft | 513 kts | 44° |
| 2026-04-25 15:28 | 38.75917 | -76.85106 | 32941 ft | 513 kts | 44° |
| 2026-04-25 15:29 | 38.80606 | -76.78252 | 32946 ft | 513 kts | 44° |
| 2026-04-25 15:29 | 38.85290 | -76.71393 | 32950 ft | 513 kts | 44° |
| 2026-04-25 15:30 | 38.89989 | -76.64496 | 32952 ft | 511 kts | 44° |
| 2026-04-25 15:30 | 38.94676 | -76.57603 | 32955 ft | 513 kts | 44° |
| 2026-04-25 15:31 | 38.99377 | -76.50671 | 32959 ft | 512 kts | 44° |
| 2026-04-25 15:31 | 39.04013 | -76.43822 | 32963 ft | 512 kts | 44° |
| 2026-04-25 15:32 | 39.08724 | -76.36847 | 32966 ft | 513 kts | 44° |
| 2026-04-25 15:32 | 39.13203 | -76.30199 | 32966 ft | 513 kts | 44° |
| 2026-04-25 15:33 | 39.19995 | -76.20094 | 32963 ft | 512 kts | 44° |
| 2026-04-25 15:33 | 39.24649 | -76.13151 | 32964 ft | 513 kts | 44° |
| 2026-04-25 15:34 | 39.29321 | -76.06166 | 32963 ft | 512 kts | 44° |
| 2026-04-25 15:34 | 39.33177 | -76.00389 | 32965 ft | 513 kts | 44° |
| 2026-04-25 15:35 | 39.40942 | -75.88724 | 32970 ft | 511 kts | 44° |
| 2026-04-25 15:36 | 39.47900 | -75.78235 | 32973 ft | 512 kts | 44° |
| 2026-04-25 15:36 | 39.52490 | -75.71295 | 32985 ft | 511 kts | 44° |
| 2026-04-25 15:37 | 39.57143 | -75.64246 | 32988 ft | 512 kts | 43° |
| 2026-04-25 15:37 | 39.61762 | -75.57230 | 32997 ft | 510 kts | 43° |
| 2026-04-25 15:38 | 39.66380 | -75.50199 | 33002 ft | 511 kts | 44° |
| 2026-04-25 15:38 | 39.70609 | -75.42767 | 33010 ft | 515 kts | 48° |
| 2026-04-25 15:39 | 39.74765 | -75.35269 | 33013 ft | 515 kts | 48° |
| 2026-04-25 15:39 | 39.78882 | -75.27869 | 33012 ft | 515 kts | 48° |
| 2026-04-25 15:40 | 39.81637 | -75.22922 | 33015 ft | 514 kts | 48° |
| 2026-04-25 15:40 | 39.87239 | -75.12861 | 33020 ft | 514 kts | 48° |
| 2026-04-25 15:41 | 39.91431 | -75.05321 | 33028 ft | 515 kts | 48° |
| 2026-04-25 15:41 | 39.95621 | -74.97770 | 33030 ft | 512 kts | 48° |
| 2026-04-25 15:42 | 39.99687 | -74.90150 | 33036 ft | 516 kts | 50° |
| 2026-04-25 15:42 | 40.03646 | -74.82325 | 33043 ft | 515 kts | 50° |
| 2026-04-25 15:43 | 40.07592 | -74.74536 | 33045 ft | 516 kts | 50° |
| 2026-04-25 15:43 | 40.11487 | -74.66840 | 33053 ft | 514 kts | 50° |
| 2026-04-25 15:44 | 40.15385 | -74.59129 | 33055 ft | 514 kts | 49° |
| 2026-04-25 15:44 | 40.19381 | -74.51415 | 33055 ft | 509 kts | 44° |
| 2026-04-25 15:45 | 40.24381 | -74.45059 | 33062 ft | 496 kts | 32° |
| 2026-04-25 15:45 | 40.27940 | -74.41258 | 33057 ft | 493 kts | 31° |
| 2026-04-25 15:46 | 40.34999 | -74.33722 | 33051 ft | 493 kts | 32° |
| 2026-04-25 15:46 | 40.40046 | -74.28317 | 33057 ft | 497 kts | 32° |
| 2026-04-25 15:47 | 40.45321 | -74.22649 | 33061 ft | 494 kts | 31° |
| 2026-04-25 15:47 | 40.50552 | -74.17017 | 33066 ft | 494 kts | 32° |
| 2026-04-25 15:48 | 40.55865 | -74.11285 | 33073 ft | 494 kts | 31° |
| 2026-04-25 15:48 | 40.61104 | -74.05618 | 33074 ft | 492 kts | 31° |
| 2026-04-25 15:49 | 40.66365 | -73.99920 | 33073 ft | 496 kts | 31° |
| 2026-04-25 15:49 | 40.71664 | -73.94161 | 33079 ft | 490 kts | 31° |
| 2026-04-25 15:50 | 40.76901 | -73.88463 | 33077 ft | 491 kts | 31° |
| 2026-04-25 15:50 | 40.82164 | -73.82724 | 33078 ft | 492 kts | 31° |
| 2026-04-25 15:51 | 40.86685 | -73.78462 | 33077 ft | 476 kts | 20° |
| 2026-04-25 15:51 | 40.93734 | -73.74666 | 33075 ft | 472 kts | 11° |
| 2026-04-25 15:52 | 40.99845 | -73.71757 | 33073 ft | 463 kts | 11° |
| 2026-04-25 15:52 | 41.05916 | -73.68863 | 33075 ft | 465 kts | 12° |
| 2026-04-25 15:53 | 41.11909 | -73.65997 | 33084 ft | 468 kts | 11° |
| 2026-04-25 15:53 | 41.18010 | -73.63066 | 33089 ft | 463 kts | 11° |
| 2026-04-25 15:54 | 41.24078 | -73.60149 | 33089 ft | 464 kts | 11° |
| 2026-04-25 15:54 | 41.30190 | -73.57854 | 33085 ft | 452 kts | 0° |
| 2026-04-25 15:55 | 41.36397 | -73.56965 | 33086 ft | 447 kts | 358° |
| 2026-04-25 15:55 | 41.42582 | -73.56139 | 33085 ft | 448 kts | 358° |
| 2026-04-25 15:56 | 41.48775 | -73.55306 | 33084 ft | 449 kts | 358° |
| 2026-04-25 15:56 | 41.54946 | -73.54471 | 33085 ft | 446 kts | 358° |
| 2026-04-25 15:57 | 41.61078 | -73.53637 | 33082 ft | 444 kts | 358° |
| 2026-04-25 15:57 | 41.67278 | -73.52796 | 33080 ft | 447 kts | 358° |
| 2026-04-25 15:58 | 41.73449 | -73.51953 | 33075 ft | 444 kts | 358° |
| 2026-04-25 15:58 | 41.79565 | -73.51118 | 33068 ft | 447 kts | 358° |
| 2026-04-25 15:59 | 41.85745 | -73.50272 | 33060 ft | 446 kts | 358° |
| 2026-04-25 15:59 | 41.91911 | -73.49425 | 33056 ft | 446 kts | 358° |
| 2026-04-25 16:00 | 41.95011 | -73.49000 | 33051 ft | 445 kts | 358° |
| 2026-04-25 16:00 | 42.04237 | -73.47729 | 33047 ft | 444 kts | 358° |
| 2026-04-25 16:01 | 42.10091 | -73.46922 | 33055 ft | 444 kts | 359° |
| 2026-04-25 16:01 | 42.16342 | -73.46057 | 33071 ft | 444 kts | 358° |
| 2026-04-25 16:02 | 42.22452 | -73.45210 | 33072 ft | 444 kts | 358° |
| 2026-04-25 16:02 | 42.28608 | -73.44356 | 33075 ft | 444 kts | 358° |
| 2026-04-25 16:03 | 42.34753 | -73.43501 | 33080 ft | 442 kts | 358° |
| 2026-04-25 16:03 | 42.40853 | -73.42651 | 33077 ft | 441 kts | 358° |
| 2026-04-25 16:04 | 42.46990 | -73.41794 | 33082 ft | 442 kts | 358° |
| 2026-04-25 16:04 | 42.53114 | -73.40938 | 33081 ft | 442 kts | 358° |
| 2026-04-25 16:05 | 42.59208 | -73.40082 | 33083 ft | 439 kts | 358° |
| 2026-04-25 16:06 | 42.68406 | -73.38791 | 33076 ft | 441 kts | 358° |
| 2026-04-25 16:06 | 42.74506 | -73.37932 | 33076 ft | 443 kts | 358° |
| 2026-04-25 16:07 | 42.80606 | -73.37069 | 33088 ft | 439 kts | 358° |
| 2026-04-25 16:07 | 42.86732 | -73.36203 | 33079 ft | 439 kts | 358° |
| 2026-04-25 16:08 | 42.92818 | -73.35341 | 33078 ft | 440 kts | 358° |
| 2026-04-25 16:08 | 42.98865 | -73.34482 | 33074 ft | 439 kts | 358° |
| 2026-04-25 16:09 | 43.04826 | -73.33804 | 33059 ft | 438 kts | 356° |
| 2026-04-25 16:09 | 43.10530 | -73.33229 | 33058 ft | 438 kts | 356° |
| 2026-04-25 16:10 | 43.16554 | -73.32613 | 33071 ft | 437 kts | 357° |
| 2026-04-25 16:10 | 43.22620 | -73.31986 | 33072 ft | 438 kts | 356° |
| 2026-04-25 16:11 | 43.28720 | -73.31352 | 33070 ft | 439 kts | 357° |
| 2026-04-25 16:11 | 43.34805 | -73.30715 | 33073 ft | 438 kts | 357° |
| 2026-04-25 16:12 | 43.40883 | -73.30077 | 33076 ft | 435 kts | 357° |
| 2026-04-25 16:12 | 43.46947 | -73.29443 | 33078 ft | 439 kts | 357° |
| 2026-04-25 16:13 | 43.53029 | -73.28800 | 33078 ft | 435 kts | 357° |
| 2026-04-25 16:13 | 43.59054 | -73.28167 | 33079 ft | 439 kts | 357° |
| 2026-04-25 16:14 | 43.65237 | -73.27515 | 33484 ft | 443 kts | 357° |
| 2026-04-25 16:14 | 43.68290 | -73.27187 | 34210 ft | 436 kts | 357° |
| 2026-04-25 16:14 | 43.71303 | -73.26865 | 34955 ft | 429 kts | 358° |
| 2026-04-25 16:14 | 43.74297 | -73.26550 | 35068 ft | 434 kts | 357° |
| 2026-04-25 16:15 | 43.77285 | -73.26233 | 35073 ft | 433 kts | 357° |
| 2026-04-25 16:15 | 43.83270 | -73.25596 | 35074 ft | 430 kts | 357° |
| 2026-04-25 16:16 | 43.89259 | -73.24958 | 35072 ft | 429 kts | 357° |
| 2026-04-25 16:16 | 43.95195 | -73.24010 | 35069 ft | 436 kts | 5° |
| 2026-04-25 16:16 | 43.98149 | -73.22824 | 34922 ft | 448 kts | 12° |
| 2026-04-25 16:17 | 44.00996 | -73.21071 | 35059 ft | 452 kts | 19° |
| 2026-04-25 16:17 | 44.03716 | -73.18754 | 35027 ft | 464 kts | 26° |
| 2026-04-25 16:17 | 44.06213 | -73.15897 | 35058 ft | 474 kts | 34° |
| 2026-04-25 16:17 | 44.08470 | -73.12472 | 35054 ft | 487 kts | 42° |
| 2026-04-25 16:18 | 44.10437 | -73.08635 | 35063 ft | 492 kts | 46° |
| 2026-04-25 16:18 | 44.14099 | -73.01076 | 35060 ft | 496 kts | 46° |
| 2026-04-25 16:19 | 44.17980 | -72.93112 | 35060 ft | 495 kts | 46° |
| 2026-04-25 16:19 | 44.21844 | -72.85211 | 35064 ft | 490 kts | 46° |
| 2026-04-25 16:20 | 44.27611 | -72.73440 | 35097 ft | 494 kts | 45° |
| 2026-04-25 16:21 | 44.33417 | -72.61563 | 35107 ft | 494 kts | 45° |
| 2026-04-25 16:21 | 44.37239 | -72.53713 | 35094 ft | 486 kts | 45° |
| 2026-04-25 16:22 | 44.41051 | -72.45885 | 35094 ft | 491 kts | 45° |
| 2026-04-25 16:22 | 44.44884 | -72.37979 | 35073 ft | 486 kts | 45° |
| 2026-04-25 16:23 | 44.48607 | -72.30286 | 35055 ft | 487 kts | 45° |
| 2026-04-25 16:23 | 44.52426 | -72.22378 | 35057 ft | 491 kts | 45° |
| 2026-04-25 16:24 | 44.56226 | -72.14472 | 35084 ft | 484 kts | 45° |
| 2026-04-25 16:24 | 44.60006 | -72.06605 | 35087 ft | 488 kts | 45° |
| 2026-04-25 16:25 | 44.63137 | -72.00064 | 35087 ft | 488 kts | 45° |
| 2026-04-25 16:25 | 44.67534 | -71.90855 | 35074 ft | 488 kts | 45° |
| 2026-04-25 16:26 | 44.71301 | -71.82936 | 35054 ft | 482 kts | 45° |
| 2026-04-25 16:26 | 44.75048 | -71.75054 | 35056 ft | 490 kts | 45° |
| 2026-04-25 16:27 | 44.78829 | -71.67062 | 35059 ft | 487 kts | 45° |
| 2026-04-25 16:27 | 44.82558 | -71.59160 | 35028 ft | 485 kts | 45° |
| 2026-04-25 16:28 | 44.86320 | -71.51174 | 35022 ft | 487 kts | 45° |
| 2026-04-25 16:28 | 44.90042 | -71.43243 | 35037 ft | 485 kts | 45° |
| 2026-04-25 16:29 | 44.93760 | -71.35304 | 35035 ft | 485 kts | 45° |
| 2026-04-25 16:29 | 44.97451 | -71.27403 | 35017 ft | 489 kts | 46° |
| 2026-04-25 16:30 | 45.01204 | -71.19340 | 35023 ft | 487 kts | 46° |
| 2026-04-25 16:30 | 45.04872 | -71.11436 | 35037 ft | 486 kts | 46° |
| 2026-04-25 16:31 | 45.08596 | -71.03400 | 35030 ft | 489 kts | 46° |
| 2026-04-25 16:31 | 45.12567 | -70.96047 | 35059 ft | 476 kts | 37° |
| 2026-04-25 16:32 | 45.17100 | -70.89172 | 35052 ft | 475 kts | 37° |
| 2026-04-25 16:32 | 45.21561 | -70.82376 | 35033 ft | 468 kts | 37° |
| 2026-04-25 16:33 | 45.26026 | -70.75561 | 35034 ft | 476 kts | 37° |
| 2026-04-25 16:33 | 45.30509 | -70.68677 | 35037 ft | 471 kts | 38° |
| 2026-04-25 16:34 | 45.34976 | -70.61805 | 35051 ft | 477 kts | 38° |
| 2026-04-25 16:34 | 45.39475 | -70.54855 | 35057 ft | 474 kts | 38° |
| 2026-04-25 16:35 | 45.43947 | -70.47935 | 35065 ft | 474 kts | 39° |
| 2026-04-25 16:35 | 45.48414 | -70.41000 | 35065 ft | 475 kts | 39° |
| 2026-04-25 16:36 | 45.52852 | -70.34094 | 35063 ft | 473 kts | 40° |
| 2026-04-25 16:36 | 45.57309 | -70.27146 | 35055 ft | 479 kts | 40° |
| 2026-04-25 16:37 | 45.61760 | -70.20180 | 35050 ft | 473 kts | 40° |
| 2026-04-25 16:37 | 45.66199 | -70.13221 | 35042 ft | 477 kts | 40° |
| 2026-04-25 16:38 | 45.70673 | -70.06189 | 35038 ft | 477 kts | 41° |
| 2026-04-25 16:38 | 45.75088 | -69.99229 | 35040 ft | 474 kts | 41° |
| 2026-04-25 16:39 | 45.79549 | -69.92182 | 35034 ft | 477 kts | 41° |
| 2026-04-25 16:39 | 45.83993 | -69.85141 | 35057 ft | 475 kts | 41° |
| 2026-04-25 16:40 | 45.88421 | -69.78110 | 35052 ft | 478 kts | 42° |
| 2026-04-25 16:40 | 45.92864 | -69.71034 | 35064 ft | 476 kts | 41° |
| 2026-04-25 16:41 | 45.97302 | -69.63950 | 35069 ft | 477 kts | 42° |
| 2026-04-25 16:41 | 46.03934 | -69.53328 | 35061 ft | 476 kts | 42° |
| 2026-04-25 16:42 | 46.08380 | -69.46186 | 35130 ft | 480 kts | 42° |
| 2026-04-25 16:42 | 46.12707 | -69.39213 | 35079 ft | 473 kts | 43° |
| 2026-04-25 16:43 | 46.17100 | -69.32121 | 35082 ft | 477 kts | 43° |
| 2026-04-25 16:43 | 46.21479 | -69.25029 | 35083 ft | 475 kts | 43° |
| 2026-04-25 16:44 | 46.25891 | -69.17866 | 35084 ft | 477 kts | 43° |
| 2026-04-25 16:44 | 46.30282 | -69.10719 | 35085 ft | 476 kts | 44° |
| 2026-04-25 16:45 | 46.34645 | -69.03597 | 35084 ft | 475 kts | 44° |
| 2026-04-25 16:45 | 46.39044 | -68.96401 | 35082 ft | 476 kts | 44° |
| 2026-04-25 16:46 | 46.43421 | -68.89220 | 35080 ft | 475 kts | 44° |
| 2026-04-25 16:46 | 46.46338 | -68.84422 | 35073 ft | 475 kts | 44° |
| 2026-04-25 16:47 | 46.52151 | -68.74840 | 35054 ft | 474 kts | 44° |
| 2026-04-25 16:47 | 46.56506 | -68.67638 | 35067 ft | 475 kts | 45° |
| 2026-04-25 16:48 | 46.60846 | -68.60442 | 35079 ft | 474 kts | 45° |
| 2026-04-25 16:48 | 46.65211 | -68.53187 | 35081 ft | 474 kts | 45° |
| 2026-04-25 16:49 | 46.69565 | -68.45929 | 35092 ft | 475 kts | 45° |
| 2026-04-25 16:49 | 46.73897 | -68.38689 | 35087 ft | 474 kts | 45° |
| 2026-04-25 16:50 | 46.78171 | -68.31526 | 35087 ft | 475 kts | 46° |
| 2026-04-25 16:50 | 46.82506 | -68.24244 | 35086 ft | 474 kts | 46° |
| 2026-04-25 16:51 | 46.86826 | -68.16966 | 35084 ft | 474 kts | 46° |
| 2026-04-25 16:51 | 46.89693 | -68.12125 | 35085 ft | 474 kts | 46° |
| 2026-04-25 16:52 | 46.95444 | -68.02389 | 35078 ft | 473 kts | 47° |
| 2026-04-25 16:52 | 46.99746 | -67.95083 | 35074 ft | 473 kts | 47° |
| 2026-04-25 16:53 | 47.06181 | -67.84117 | 35068 ft | 472 kts | 47° |
| 2026-04-25 16:54 | 47.10425 | -67.76862 | 35049 ft | 471 kts | 47° |
| 2026-04-25 16:54 | 47.14651 | -67.69617 | 35068 ft | 470 kts | 47° |
| 2026-04-25 16:55 | 47.18886 | -67.62336 | 35068 ft | 469 kts | 47° |
| 2026-04-25 16:55 | 47.23134 | -67.55015 | 35050 ft | 467 kts | 47° |
| 2026-04-25 16:56 | 47.27329 | -67.47767 | 35052 ft | 468 kts | 47° |
| 2026-04-25 16:56 | 47.31539 | -67.40470 | 35053 ft | 465 kts | 47° |
| 2026-04-25 16:57 | 47.35733 | -67.33183 | 35045 ft | 466 kts | 48° |
| 2026-04-25 16:57 | 47.39849 | -67.25822 | 35041 ft | 465 kts | 50° |
| 2026-04-25 16:58 | 47.43845 | -67.18346 | 35030 ft | 465 kts | 50° |
| 2026-04-25 16:58 | 47.47869 | -67.10812 | 35041 ft | 465 kts | 50° |
| 2026-04-25 16:59 | 47.51856 | -67.03339 | 35043 ft | 463 kts | 50° |
| 2026-04-25 16:59 | 47.55844 | -66.95850 | 35040 ft | 463 kts | 50° |
| 2026-04-25 17:00 | 47.59835 | -66.88339 | 35029 ft | 463 kts | 50° |
| 2026-04-25 17:00 | 47.63806 | -66.80846 | 35025 ft | 463 kts | 50° |
| 2026-04-25 17:01 | 47.67768 | -66.73350 | 35018 ft | 463 kts | 50° |
| 2026-04-25 17:01 | 47.71719 | -66.65855 | 35040 ft | 462 kts | 50° |
| 2026-04-25 17:02 | 47.75661 | -66.58357 | 35006 ft | 462 kts | 51° |
| 2026-04-25 17:02 | 47.79631 | -66.50785 | 35002 ft | 462 kts | 51° |
| 2026-04-25 17:03 | 47.83552 | -66.43286 | 35028 ft | 462 kts | 51° |
| 2026-04-25 17:03 | 47.87477 | -66.35758 | 35036 ft | 462 kts | 51° |
| 2026-04-25 17:04 | 47.91401 | -66.28212 | 35062 ft | 462 kts | 51° |
| 2026-04-25 17:04 | 47.95325 | -66.20645 | 35066 ft | 460 kts | 51° |
| 2026-04-25 17:04 | 47.97266 | -66.16893 | 35223 ft | 461 kts | 51° |
| 2026-04-25 17:05 | 47.99245 | -66.13063 | 35433 ft | 462 kts | 51° |
| 2026-04-25 17:05 | 48.03156 | -66.05478 | 35826 ft | 461 kts | 51° |
| 2026-04-25 17:05 | 48.05119 | -66.01664 | 35995 ft | 462 kts | 51° |
| 2026-04-25 17:06 | 48.09031 | -65.94046 | 36024 ft | 464 kts | 51° |
| 2026-04-25 17:06 | 48.12913 | -65.86463 | 36036 ft | 462 kts | 51° |
| 2026-04-25 17:07 | 48.16828 | -65.78795 | 36023 ft | 463 kts | 51° |
| 2026-04-25 17:07 | 48.20734 | -65.71124 | 36026 ft | 461 kts | 51° |
| 2026-04-25 17:08 | 48.24602 | -65.63506 | 36013 ft | 462 kts | 51° |
| 2026-04-25 17:08 | 48.28497 | -65.55811 | 36005 ft | 462 kts | 51° |
| 2026-04-25 17:09 | 48.32378 | -65.48126 | 35990 ft | 461 kts | 51° |
| 2026-04-25 17:09 | 48.36256 | -65.40423 | 35976 ft | 462 kts | 51° |
| 2026-04-25 17:10 | 48.40128 | -65.32709 | 35984 ft | 461 kts | 52° |
| 2026-04-25 17:10 | 48.43966 | -65.25041 | 35988 ft | 462 kts | 52° |
| 2026-04-25 17:11 | 48.47816 | -65.17328 | 35973 ft | 461 kts | 52° |
| 2026-04-25 17:11 | 48.51675 | -65.09573 | 35980 ft | 461 kts | 52° |
| 2026-04-25 17:12 | 48.55524 | -65.01817 | 35977 ft | 461 kts | 52° |
| 2026-04-25 17:12 | 48.59359 | -64.94068 | 35973 ft | 461 kts | 52° |
| 2026-04-25 17:13 | 48.61926 | -64.88869 | 35977 ft | 461 kts | 52° |
| 2026-04-25 17:13 | 48.67023 | -64.78513 | 35974 ft | 460 kts | 52° |
| 2026-04-25 17:14 | 48.70813 | -64.70789 | 35981 ft | 460 kts | 52° |
| 2026-04-25 17:14 | 48.74628 | -64.62990 | 35987 ft | 460 kts | 52° |
| 2026-04-25 17:15 | 48.78422 | -64.55211 | 35996 ft | 458 kts | 52° |
| 2026-04-25 17:15 | 48.82196 | -64.47452 | 35995 ft | 459 kts | 52° |
| 2026-04-25 17:16 | 48.85972 | -64.39667 | 36003 ft | 459 kts | 52° |
| 2026-04-25 17:16 | 48.89748 | -64.31857 | 36000 ft | 459 kts | 53° |
| 2026-04-25 17:17 | 48.93490 | -64.24096 | 35992 ft | 459 kts | 53° |
| 2026-04-25 17:17 | 48.97239 | -64.16298 | 35990 ft | 459 kts | 53° |
| 2026-04-25 17:18 | 49.01004 | -64.08443 | 35988 ft | 458 kts | 53° |
| 2026-04-25 17:18 | 49.04740 | -64.00628 | 35971 ft | 458 kts | 53° |
| 2026-04-25 17:19 | 49.08473 | -63.92794 | 35967 ft | 458 kts | 53° |
| 2026-04-25 17:19 | 49.12175 | -63.85004 | 35966 ft | 458 kts | 53° |
| 2026-04-25 17:20 | 49.15905 | -63.77132 | 35973 ft | 458 kts | 53° |
| 2026-04-25 17:20 | 49.19638 | -63.69229 | 35970 ft | 458 kts | 53° |
| 2026-04-25 17:21 | 49.23357 | -63.61332 | 35963 ft | 459 kts | 53° |
| 2026-04-25 17:21 | 49.27079 | -63.53406 | 35957 ft | 458 kts | 53° |
| 2026-04-25 17:22 | 49.30173 | -63.46802 | 35956 ft | 459 kts | 53° |
| 2026-04-25 17:22 | 49.34513 | -63.37506 | 35945 ft | 459 kts | 53° |
| 2026-04-25 17:23 | 49.38225 | -63.29531 | 35941 ft | 459 kts | 53° |
| 2026-04-25 17:23 | 49.41921 | -63.21567 | 35933 ft | 460 kts | 53° |
| 2026-04-25 17:24 | 49.45611 | -63.13592 | 35925 ft | 460 kts | 53° |
| 2026-04-25 17:24 | 49.49309 | -63.05575 | 35919 ft | 461 kts | 53° |
| 2026-04-25 17:25 | 49.53008 | -62.97532 | 35916 ft | 460 kts | 53° |
| 2026-04-25 17:25 | 49.56688 | -62.89507 | 35917 ft | 460 kts | 53° |
| 2026-04-25 17:26 | 49.60372 | -62.81448 | 35915 ft | 461 kts | 53° |
| 2026-04-25 17:26 | 49.64051 | -62.73374 | 35911 ft | 460 kts | 53° |
| 2026-04-25 17:27 | 49.67697 | -62.65348 | 35915 ft | 460 kts | 53° |
| 2026-04-25 17:27 | 49.70157 | -62.59922 | 35920 ft | 461 kts | 53° |
| 2026-04-25 17:28 | 49.75011 | -62.49180 | 35912 ft | 460 kts | 53° |
| 2026-04-25 17:28 | 49.78673 | -62.41045 | 35908 ft | 461 kts | 53° |
| 2026-04-25 17:29 | 49.82316 | -62.32930 | 35897 ft | 461 kts | 54° |
| 2026-04-25 17:29 | 49.85963 | -62.24780 | 35894 ft | 460 kts | 54° |
| 2026-04-25 17:30 | 49.89581 | -62.16670 | 35899 ft | 461 kts | 54° |
| 2026-04-25 17:30 | 49.93221 | -62.08485 | 35889 ft | 461 kts | 54° |
| 2026-04-25 17:31 | 49.96846 | -62.00310 | 35882 ft | 461 kts | 54° |
| 2026-04-25 17:31 | 50.00454 | -61.92146 | 35890 ft | 461 kts | 54° |
| 2026-04-25 17:32 | 50.04076 | -61.83926 | 35872 ft | 461 kts | 54° |
| 2026-04-25 17:32 | 50.07683 | -61.75715 | 35885 ft | 461 kts | 54° |
| 2026-04-25 17:33 | 50.11247 | -61.67576 | 35893 ft | 460 kts | 54° |
| 2026-04-25 17:33 | 50.14858 | -61.59305 | 35882 ft | 460 kts | 54° |
| 2026-04-25 17:34 | 50.18452 | -61.51046 | 35892 ft | 460 kts | 54° |
| 2026-04-25 17:34 | 50.22022 | -61.42818 | 35882 ft | 460 kts | 54° |
| 2026-04-25 17:35 | 50.25607 | -61.34526 | 35884 ft | 460 kts | 54° |
| 2026-04-25 17:35 | 50.29169 | -61.26265 | 35885 ft | 460 kts | 54° |
| 2026-04-25 17:36 | 50.32733 | -61.17972 | 35872 ft | 460 kts | 54° |
| 2026-04-25 17:36 | 50.36291 | -61.09665 | 35870 ft | 460 kts | 54° |
| 2026-04-25 17:37 | 50.39839 | -61.01357 | 35871 ft | 460 kts | 54° |
| 2026-04-25 17:37 | 50.43403 | -60.92985 | 35866 ft | 460 kts | 54° |
| 2026-04-25 17:38 | 50.46341 | -60.86063 | 35866 ft | 460 kts | 54° |
| 2026-04-25 17:38 | 50.50469 | -60.76307 | 35845 ft | 460 kts | 54° |
| 2026-04-25 17:39 | 50.54011 | -60.67907 | 35864 ft | 460 kts | 54° |
| 2026-04-25 17:39 | 50.57537 | -60.59517 | 35850 ft | 459 kts | 54° |
| 2026-04-25 17:40 | 50.61039 | -60.51157 | 35843 ft | 460 kts | 54° |
| 2026-04-25 17:40 | 50.64546 | -60.42760 | 35834 ft | 459 kts | 54° |
| 2026-04-25 17:41 | 50.68039 | -60.34368 | 35851 ft | 459 kts | 55° |
| 2026-04-25 17:41 | 50.71527 | -60.25963 | 35839 ft | 460 kts | 55° |
| 2026-04-25 17:42 | 50.75021 | -60.17515 | 35816 ft | 459 kts | 55° |
| 2026-04-25 17:42 | 50.78498 | -60.09079 | 35827 ft | 459 kts | 55° |
| 2026-04-25 17:43 | 50.81984 | -60.00597 | 35832 ft | 460 kts | 55° |
| 2026-04-25 17:43 | 50.85444 | -59.92150 | 35835 ft | 458 kts | 55° |
| 2026-04-25 17:44 | 50.88914 | -59.83649 | 35832 ft | 458 kts | 55° |
| 2026-04-25 17:44 | 50.92370 | -59.75157 | 35834 ft | 459 kts | 55° |
| 2026-04-25 17:45 | 50.94659 | -59.69515 | 35822 ft | 459 kts | 55° |
| 2026-04-25 17:45 | 50.99237 | -59.58198 | 35820 ft | 458 kts | 55° |
| 2026-04-25 17:46 | 51.02662 | -59.49699 | 35826 ft | 459 kts | 55° |
| 2026-04-25 17:46 | 51.06109 | -59.41115 | 35829 ft | 458 kts | 55° |
| 2026-04-25 17:47 | 51.09494 | -59.32661 | 35827 ft | 460 kts | 56° |
| 2026-04-25 17:47 | 51.12853 | -59.24241 | 35834 ft | 459 kts | 56° |
| 2026-04-25 17:48 | 51.17990 | -59.11313 | 35827 ft | 458 kts | 56° |
| 2026-04-25 17:49 | 51.21365 | -59.02784 | 35825 ft | 458 kts | 56° |
| 2026-04-25 17:49 | 51.24755 | -58.94190 | 35822 ft | 457 kts | 56° |
| 2026-04-25 17:50 | 51.28148 | -58.85558 | 35809 ft | 458 kts | 56° |
| 2026-04-25 17:50 | 51.31513 | -58.76970 | 35819 ft | 458 kts | 56° |
| 2026-04-25 17:51 | 51.34902 | -58.68290 | 35823 ft | 457 kts | 56° |
| 2026-04-25 17:51 | 51.38254 | -58.59676 | 35818 ft | 457 kts | 56° |
| 2026-04-25 17:52 | 51.41606 | -58.51034 | 35809 ft | 457 kts | 56° |
| 2026-04-25 17:52 | 51.44940 | -58.42409 | 35817 ft | 457 kts | 56° |
| 2026-04-25 17:53 | 51.48273 | -58.33758 | 35804 ft | 457 kts | 57° |
| 2026-04-25 17:53 | 51.51620 | -58.25040 | 35808 ft | 458 kts | 57° |
| 2026-04-25 17:54 | 51.54939 | -58.16367 | 35803 ft | 458 kts | 57° |
| 2026-04-25 17:54 | 51.58278 | -58.07611 | 35789 ft | 458 kts | 57° |
| 2026-04-25 17:55 | 51.61591 | -57.98895 | 35804 ft | 457 kts | 57° |
| 2026-04-25 17:55 | 51.64919 | -57.90107 | 35787 ft | 459 kts | 57° |
| 2026-04-25 17:56 | 51.68224 | -57.81353 | 35784 ft | 459 kts | 57° |
| 2026-04-25 17:56 | 51.71517 | -57.72596 | 35784 ft | 458 kts | 57° |
| 2026-04-25 17:57 | 51.74808 | -57.63818 | 35782 ft | 459 kts | 57° |
| 2026-04-25 17:57 | 51.78102 | -57.54999 | 35772 ft | 458 kts | 57° |
| 2026-04-25 17:58 | 51.81391 | -57.46166 | 35772 ft | 458 kts | 57° |
| 2026-04-25 17:58 | 51.84660 | -57.37356 | 35775 ft | 460 kts | 57° |
| 2026-04-25 17:59 | 51.87929 | -57.28511 | 35758 ft | 460 kts | 58° |
| 2026-04-25 17:59 | 51.91206 | -57.19617 | 35764 ft | 459 kts | 58° |
| 2026-04-25 18:00 | 51.94471 | -57.10726 | 35753 ft | 460 kts | 58° |
| 2026-04-25 18:00 | 51.97730 | -57.01817 | 35757 ft | 460 kts | 58° |
| 2026-04-25 18:01 | 52.00969 | -56.92934 | 35752 ft | 460 kts | 58° |
| 2026-04-25 18:01 | 52.04213 | -56.84003 | 35759 ft | 460 kts | 58° |
| 2026-04-25 18:02 | 52.07458 | -56.75039 | 35764 ft | 459 kts | 58° |
| 2026-04-25 18:02 | 52.10687 | -56.66087 | 35755 ft | 459 kts | 58° |
| 2026-04-25 18:03 | 52.13893 | -56.57168 | 35755 ft | 460 kts | 58° |
| 2026-04-25 18:03 | 52.17116 | -56.48169 | 35754 ft | 460 kts | 58° |
| 2026-04-25 18:04 | 52.20321 | -56.39189 | 35761 ft | 459 kts | 58° |
| 2026-04-25 18:04 | 52.23513 | -56.30212 | 35770 ft | 459 kts | 59° |
| 2026-04-25 18:05 | 52.26679 | -56.21279 | 35779 ft | 460 kts | 59° |
| 2026-04-25 18:05 | 52.29853 | -56.12287 | 35789 ft | 459 kts | 59° |
| 2026-04-25 18:06 | 52.33040 | -56.03232 | 35801 ft | 458 kts | 59° |
| 2026-04-25 18:06 | 52.36208 | -55.94194 | 35800 ft | 460 kts | 59° |
| 2026-04-25 18:07 | 52.39174 | -55.84978 | 35793 ft | 462 kts | 68° |
| 2026-04-25 18:07 | 52.40861 | -55.74921 | 35793 ft | 463 kts | 75° |
| 2026-04-25 18:08 | 52.42284 | -55.64630 | 35785 ft | 463 kts | 75° |
| 2026-04-25 18:08 | 52.43637 | -55.54405 | 35783 ft | 463 kts | 76° |
| 2026-04-25 18:09 | 52.44970 | -55.44052 | 35761 ft | 465 kts | 76° |
| 2026-04-25 18:09 | 52.46274 | -55.33733 | 35759 ft | 464 kts | 77° |
| 2026-04-25 18:10 | 52.47563 | -55.23410 | 35761 ft | 464 kts | 77° |
| 2026-04-25 18:10 | 52.48837 | -55.13091 | 35753 ft | 465 kts | 77° |
| 2026-04-25 18:11 | 52.50104 | -55.02737 | 35743 ft | 465 kts | 77° |
| 2026-04-25 18:11 | 52.51359 | -54.92398 | 35749 ft | 464 kts | 77° |
| 2026-04-25 18:12 | 52.52611 | -54.81994 | 35735 ft | 465 kts | 77° |
| 2026-04-25 18:12 | 52.53842 | -54.71685 | 35735 ft | 464 kts | 77° |
| 2026-04-25 18:13 | 52.55076 | -54.61269 | 35739 ft | 464 kts | 77° |
| 2026-04-25 18:13 | 52.56294 | -54.50896 | 35729 ft | 466 kts | 77° |
| 2026-04-25 18:14 | 52.58112 | -54.35267 | 35719 ft | 465 kts | 77° |
| 2026-04-25 18:14 | 52.59312 | -54.24842 | 35729 ft | 465 kts | 78° |
| 2026-04-25 18:15 | 52.60500 | -54.14441 | 35725 ft | 466 kts | 78° |
| 2026-04-25 18:15 | 52.61678 | -54.04036 | 35720 ft | 465 kts | 78° |
| 2026-04-25 18:16 | 52.62855 | -53.93562 | 35710 ft | 466 kts | 78° |
| 2026-04-25 18:17 | 52.64592 | -53.77925 | 35708 ft | 466 kts | 78° |
| 2026-04-25 18:17 | 52.65738 | -53.67513 | 35702 ft | 466 kts | 78° |
| 2026-04-25 18:18 | 52.66878 | -53.57046 | 35708 ft | 466 kts | 78° |
| 2026-04-25 18:18 | 52.68013 | -53.46549 | 35693 ft | 467 kts | 78° |
| 2026-04-25 18:19 | 52.69136 | -53.36072 | 35704 ft | 466 kts | 78° |
| 2026-04-25 18:19 | 52.70245 | -53.25629 | 35698 ft | 466 kts | 79° |
| 2026-04-25 18:20 | 52.71352 | -53.15115 | 35675 ft | 468 kts | 79° |
| 2026-04-25 18:20 | 52.72451 | -53.04584 | 35680 ft | 468 kts | 79° |
| 2026-04-25 18:21 | 52.73538 | -52.94077 | 35688 ft | 468 kts | 79° |
| 2026-04-25 18:21 | 52.74618 | -52.83530 | 35677 ft | 468 kts | 79° |
| 2026-04-25 18:22 | 52.75689 | -52.72989 | 35680 ft | 467 kts | 79° |
| 2026-04-25 18:22 | 52.76751 | -52.62431 | 35682 ft | 468 kts | 79° |
| 2026-04-25 18:23 | 52.77799 | -52.51917 | 35675 ft | 468 kts | 79° |
| 2026-04-25 18:23 | 52.78843 | -52.41339 | 35666 ft | 468 kts | 79° |
| 2026-04-25 18:24 | 52.79876 | -52.30784 | 35666 ft | 469 kts | 80° |
| 2026-04-25 18:24 | 52.80903 | -52.20176 | 35670 ft | 468 kts | 80° |
| 2026-04-25 18:25 | 52.81918 | -52.09595 | 35662 ft | 469 kts | 80° |
| 2026-04-25 18:25 | 52.82927 | -51.98968 | 35671 ft | 469 kts | 80° |
| 2026-04-25 18:26 | 52.83921 | -51.88400 | 35649 ft | 469 kts | 80° |
| 2026-04-25 18:26 | 52.84909 | -51.77788 | 35668 ft | 469 kts | 80° |
| 2026-04-25 18:27 | 52.85893 | -51.67116 | 35652 ft | 469 kts | 80° |
| 2026-04-25 18:27 | 52.86863 | -51.56490 | 35653 ft | 469 kts | 81° |
| 2026-04-25 18:28 | 52.87823 | -51.45861 | 35647 ft | 469 kts | 81° |
| 2026-04-25 18:28 | 52.88772 | -51.35247 | 35629 ft | 470 kts | 81° |
| 2026-04-25 18:29 | 52.90186 | -51.19214 | 35642 ft | 469 kts | 81° |
| 2026-04-25 18:30 | 52.92033 | -50.97885 | 35631 ft | 470 kts | 81° |
| 2026-04-25 18:30 | 52.92939 | -50.87250 | 35622 ft | 471 kts | 81° |
| 2026-04-25 18:31 | 52.93845 | -50.76495 | 35634 ft | 470 kts | 81° |
| 2026-04-25 18:31 | 52.94732 | -50.65847 | 35625 ft | 470 kts | 81° |
| 2026-04-25 18:32 | 52.95612 | -50.55173 | 35623 ft | 470 kts | 81° |
| 2026-04-25 18:32 | 52.96487 | -50.44434 | 35627 ft | 470 kts | 81° |
| 2026-04-25 18:33 | 52.97346 | -50.33757 | 35611 ft | 470 kts | 82° |
| 2026-04-25 18:33 | 52.98204 | -50.22978 | 35630 ft | 471 kts | 82° |
| 2026-04-25 18:34 | 52.99044 | -50.12309 | 35616 ft | 471 kts | 82° |
| 2026-04-25 18:34 | 52.99877 | -50.01591 | 35616 ft | 471 kts | 82° |
| 2026-04-25 18:35 | 53.01117 | -49.90970 | 35628 ft | 471 kts | 76° |
| 2026-04-25 18:35 | 53.02712 | -49.80470 | 35620 ft | 471 kts | 76° |
| 2026-04-25 18:36 | 53.04257 | -49.69975 | 35603 ft | 471 kts | 76° |
| 2026-04-25 18:36 | 53.05774 | -49.59446 | 35614 ft | 470 kts | 76° |
| 2026-04-25 18:37 | 53.07272 | -49.48887 | 35612 ft | 470 kts | 76° |
| 2026-04-25 18:37 | 53.08751 | -49.38354 | 35614 ft | 470 kts | 76° |
| 2026-04-25 18:38 | 53.10222 | -49.27777 | 35617 ft | 470 kts | 77° |
| 2026-04-25 18:38 | 53.11685 | -49.17164 | 35602 ft | 470 kts | 77° |
| 2026-04-25 18:39 | 53.13126 | -49.06632 | 35618 ft | 470 kts | 77° |
| 2026-04-25 18:39 | 53.14570 | -48.96006 | 35619 ft | 471 kts | 77° |
| 2026-04-25 18:40 | 53.15988 | -48.85487 | 35612 ft | 471 kts | 77° |
| 2026-04-25 18:40 | 53.17415 | -48.74822 | 35605 ft | 471 kts | 77° |
| 2026-04-25 18:41 | 53.18816 | -48.64276 | 35611 ft | 471 kts | 78° |
| 2026-04-25 18:41 | 53.20217 | -48.53656 | 35594 ft | 471 kts | 78° |
| 2026-04-25 18:42 | 53.21149 | -48.46544 | 35602 ft | 472 kts | 78° |
| 2026-04-25 18:42 | 53.22999 | -48.32323 | 35616 ft | 471 kts | 78° |
| 2026-04-25 18:43 | 53.24365 | -48.21730 | 35613 ft | 472 kts | 78° |
| 2026-04-25 18:43 | 53.25732 | -48.11047 | 35600 ft | 472 kts | 79° |
| 2026-04-25 18:44 | 53.27089 | -48.00363 | 35587 ft | 472 kts | 79° |
| 2026-04-25 18:44 | 53.28435 | -47.89685 | 35602 ft | 472 kts | 79° |
| 2026-04-25 18:45 | 53.29770 | -47.79011 | 35597 ft | 472 kts | 79° |
| 2026-04-25 18:45 | 53.31097 | -47.68314 | 35597 ft | 472 kts | 79° |
| 2026-04-25 18:46 | 53.32417 | -47.57595 | 35604 ft | 471 kts | 79° |
| 2026-04-25 18:46 | 53.33725 | -47.46885 | 35594 ft | 472 kts | 79° |
| 2026-04-25 18:47 | 53.35027 | -47.36142 | 35590 ft | 472 kts | 79° |
| 2026-04-25 18:47 | 53.36307 | -47.25490 | 35591 ft | 471 kts | 79° |
| 2026-04-25 18:48 | 53.37585 | -47.14773 | 35592 ft | 472 kts | 80° |
| 2026-04-25 18:48 | 53.38855 | -47.04033 | 35608 ft | 472 kts | 80° |
| 2026-04-25 18:49 | 53.40119 | -46.93261 | 35605 ft | 472 kts | 80° |
| 2026-04-25 18:49 | 53.41362 | -46.82576 | 35591 ft | 471 kts | 80° |
| 2026-04-25 18:50 | 53.42601 | -46.71840 | 35598 ft | 472 kts | 80° |
| 2026-04-25 18:50 | 53.43836 | -46.61044 | 35597 ft | 471 kts | 80° |
| 2026-04-25 18:51 | 53.44854 | -46.52081 | 35595 ft | 472 kts | 80° |
| 2026-04-25 18:51 | 53.46273 | -46.39471 | 35598 ft | 472 kts | 80° |
| 2026-04-25 18:52 | 53.47475 | -46.28694 | 35602 ft | 472 kts | 81° |
| 2026-04-25 18:52 | 53.48667 | -46.17906 | 35597 ft | 472 kts | 81° |
| 2026-04-25 18:53 | 53.49849 | -46.07119 | 35594 ft | 473 kts | 81° |
| 2026-04-25 18:53 | 53.51028 | -45.96273 | 35595 ft | 472 kts | 81° |
| 2026-04-25 18:54 | 53.52764 | -45.80109 | 35606 ft | 472 kts | 81° |
| 2026-04-25 18:55 | 53.53915 | -45.69272 | 35605 ft | 472 kts | 81° |
| 2026-04-25 18:55 | 53.55052 | -45.58472 | 35607 ft | 472 kts | 81° |
| 2026-04-25 18:56 | 53.56186 | -45.47596 | 35605 ft | 473 kts | 81° |
| 2026-04-25 18:56 | 53.57303 | -45.36794 | 35596 ft | 472 kts | 81° |
| 2026-04-25 18:57 | 53.58413 | -45.25952 | 35606 ft | 473 kts | 82° |
| 2026-04-25 18:57 | 53.59515 | -45.15084 | 35614 ft | 473 kts | 82° |
| 2026-04-25 18:58 | 53.60607 | -45.04216 | 35607 ft | 472 kts | 82° |
| 2026-04-25 18:58 | 53.62228 | -44.87886 | 35608 ft | 474 kts | 82° |
| 2026-04-25 18:59 | 53.64358 | -44.66069 | 35605 ft | 474 kts | 82° |
| 2026-04-25 19:00 | 53.65928 | -44.49697 | 35609 ft | 474 kts | 82° |
| 2026-04-25 19:01 | 53.67473 | -44.33347 | 35605 ft | 475 kts | 83° |
| 2026-04-25 19:01 | 53.68493 | -44.22413 | 35606 ft | 475 kts | 83° |
| 2026-04-25 19:02 | 53.70005 | -44.05992 | 35607 ft | 475 kts | 83° |
| 2026-04-25 19:03 | 53.71167 | -43.93199 | 35614 ft | 475 kts | 83° |
| 2026-04-25 19:03 | 53.72480 | -43.78555 | 35612 ft | 475 kts | 83° |
| 2026-04-25 19:04 | 53.73941 | -43.62005 | 35619 ft | 475 kts | 83° |
| 2026-04-25 19:05 | 53.75847 | -43.39991 | 35627 ft | 476 kts | 83° |
| 2026-04-25 19:06 | 53.76782 | -43.29015 | 35646 ft | 477 kts | 84° |
| 2026-04-25 19:06 | 53.78175 | -43.12426 | 35654 ft | 477 kts | 84° |
| 2026-04-25 19:07 | 53.79548 | -42.95794 | 35658 ft | 479 kts | 84° |
| 2026-04-25 19:08 | 53.80892 | -42.79218 | 35647 ft | 478 kts | 84° |
| 2026-04-25 19:09 | 53.82516 | -42.58793 | 35657 ft | 480 kts | 84° |
| 2026-04-25 19:10 | 53.83961 | -42.40231 | 35654 ft | 481 kts | 84° |
| 2026-04-25 19:10 | 53.84817 | -42.29043 | 35654 ft | 481 kts | 85° |
| 2026-04-25 19:11 | 53.85667 | -42.17796 | 35661 ft | 482 kts | 85° |
| 2026-04-25 19:11 | 53.86503 | -42.06593 | 35659 ft | 483 kts | 85° |
| 2026-04-25 19:12 | 53.87331 | -41.95356 | 35658 ft | 483 kts | 85° |
| 2026-04-25 19:12 | 53.88152 | -41.84061 | 35663 ft | 484 kts | 85° |
| 2026-04-25 19:13 | 53.88959 | -41.72807 | 35664 ft | 484 kts | 85° |
| 2026-04-25 19:13 | 53.89758 | -41.61517 | 35676 ft | 484 kts | 85° |
| 2026-04-25 19:14 | 53.90542 | -41.50285 | 35670 ft | 485 kts | 85° |
| 2026-04-25 19:14 | 53.91324 | -41.38936 | 35677 ft | 486 kts | 85° |
| 2026-04-25 19:15 | 53.92093 | -41.27594 | 35681 ft | 485 kts | 86° |
| 2026-04-25 19:15 | 53.92849 | -41.16296 | 35677 ft | 486 kts | 86° |
| 2026-04-25 19:16 | 53.93599 | -41.04919 | 35682 ft | 486 kts | 86° |
| 2026-04-25 19:16 | 53.94335 | -40.93602 | 35691 ft | 487 kts | 86° |
| 2026-04-25 19:17 | 53.95065 | -40.82191 | 35686 ft | 487 kts | 86° |
| 2026-04-25 19:17 | 53.95781 | -40.70839 | 35691 ft | 488 kts | 86° |
| 2026-04-25 19:18 | 53.96490 | -40.59415 | 35697 ft | 489 kts | 86° |
| 2026-04-25 19:18 | 53.97187 | -40.48004 | 35693 ft | 489 kts | 86° |
| 2026-04-25 19:19 | 53.97877 | -40.36532 | 35701 ft | 489 kts | 86° |
| 2026-04-25 19:19 | 53.98553 | -40.25099 | 35700 ft | 489 kts | 87° |
| 2026-04-25 19:20 | 53.99222 | -40.13613 | 35712 ft | 491 kts | 87° |
| 2026-04-25 19:20 | 53.99876 | -40.02083 | 35689 ft | 490 kts | 88° |
| 2026-04-25 19:21 | 54.00375 | -39.90591 | 35712 ft | 492 kts | 88° |
| 2026-04-25 19:21 | 54.01079 | -39.73227 | 35700 ft | 493 kts | 88° |
| 2026-04-25 19:22 | 54.01528 | -39.61730 | 35693 ft | 492 kts | 88° |
| 2026-04-25 19:23 | 54.02184 | -39.44342 | 35736 ft | 494 kts | 88° |
| 2026-04-25 19:23 | 54.02816 | -39.26907 | 35735 ft | 494 kts | 89° |
| 2026-04-25 19:24 | 54.03222 | -39.15342 | 35740 ft | 495 kts | 89° |
| 2026-04-25 19:25 | 54.04006 | -38.91957 | 35737 ft | 496 kts | 89° |
| 2026-04-25 19:25 | 54.04378 | -38.80363 | 35755 ft | 496 kts | 89° |
| 2026-04-25 19:26 | 54.04741 | -38.68687 | 35756 ft | 497 kts | 89° |
| 2026-04-25 19:26 | 54.05094 | -38.56971 | 35757 ft | 497 kts | 89° |
| 2026-04-25 19:27 | 54.05380 | -38.47207 | 35747 ft | 497 kts | 89° |
| 2026-04-25 19:27 | 54.05767 | -38.33522 | 35750 ft | 497 kts | 90° |
| 2026-04-25 19:28 | 54.06086 | -38.21803 | 35766 ft | 499 kts | 90° |
| 2026-04-25 19:28 | 54.06393 | -38.10076 | 35763 ft | 499 kts | 90° |
| 2026-04-25 19:29 | 54.06690 | -37.98343 | 35770 ft | 499 kts | 90° |
| 2026-04-25 19:29 | 54.06974 | -37.86607 | 35775 ft | 499 kts | 90° |
| 2026-04-25 19:30 | 54.07249 | -37.74823 | 35785 ft | 499 kts | 89° |
| 2026-04-25 19:30 | 54.07511 | -37.63060 | 35791 ft | 499 kts | 90° |
| 2026-04-25 19:31 | 54.07761 | -37.51373 | 35797 ft | 499 kts | 89° |
| 2026-04-25 19:31 | 54.08001 | -37.39604 | 35785 ft | 499 kts | 90° |
| 2026-04-25 19:32 | 54.08230 | -37.27776 | 35776 ft | 499 kts | 90° |
| 2026-04-25 19:32 | 54.08375 | -37.19947 | 35779 ft | 500 kts | 90° |
| 2026-04-25 19:33 | 54.08651 | -37.04258 | 35784 ft | 500 kts | 90° |
| 2026-04-25 19:33 | 54.08845 | -36.92491 | 35782 ft | 500 kts | 90° |
| 2026-04-25 19:34 | 54.09028 | -36.80643 | 35784 ft | 501 kts | 90° |
| 2026-04-25 19:34 | 54.09199 | -36.68816 | 35793 ft | 501 kts | 90° |
| 2026-04-25 19:35 | 54.09359 | -36.57051 | 35804 ft | 501 kts | 90° |
| 2026-04-25 19:35 | 54.09507 | -36.45182 | 35810 ft | 502 kts | 90° |
| 2026-04-25 19:36 | 54.09644 | -36.33368 | 35809 ft | 502 kts | 91° |
| 2026-04-25 19:36 | 54.09769 | -36.21515 | 35809 ft | 501 kts | 91° |
| 2026-04-25 19:37 | 54.09882 | -36.09705 | 35829 ft | 502 kts | 91° |
| 2026-04-25 19:37 | 54.09984 | -35.97844 | 35802 ft | 503 kts | 91° |
| 2026-04-25 19:38 | 54.10075 | -35.85986 | 35800 ft | 503 kts | 91° |
| 2026-04-25 19:38 | 54.10154 | -35.74096 | 35816 ft | 504 kts | 91° |
| 2026-04-25 19:39 | 54.10221 | -35.62268 | 35819 ft | 503 kts | 91° |
| 2026-04-25 19:39 | 54.10276 | -35.50326 | 35809 ft | 504 kts | 91° |
| 2026-04-25 19:40 | 54.10320 | -35.38503 | 35815 ft | 504 kts | 91° |
| 2026-04-25 19:40 | 54.10352 | -35.26578 | 35836 ft | 504 kts | 91° |
| 2026-04-25 19:41 | 54.10372 | -35.14708 | 35846 ft | 505 kts | 91° |
| 2026-04-25 19:41 | 54.10379 | -35.06806 | 35825 ft | 503 kts | 91° |
| 2026-04-25 19:42 | 54.10378 | -34.90945 | 35812 ft | 503 kts | 91° |
| 2026-04-25 19:42 | 54.10363 | -34.79009 | 35816 ft | 504 kts | 91° |
| 2026-04-25 19:43 | 54.10336 | -34.67128 | 35810 ft | 503 kts | 91° |
| 2026-04-25 19:43 | 54.10298 | -34.55230 | 35863 ft | 506 kts | 91° |
| 2026-04-25 19:44 | 54.10248 | -34.43278 | 35848 ft | 505 kts | 91° |
| 2026-04-25 19:44 | 54.10186 | -34.31425 | 35835 ft | 505 kts | 92° |
| 2026-04-25 19:45 | 54.10113 | -34.19510 | 35832 ft | 505 kts | 92° |
| 2026-04-25 19:45 | 54.10027 | -34.07551 | 35852 ft | 505 kts | 92° |
| 2026-04-25 19:46 | 54.09930 | -33.95657 | 35839 ft | 506 kts | 92° |
| 2026-04-25 19:46 | 54.09821 | -33.83689 | 35848 ft | 506 kts | 92° |
| 2026-04-25 19:47 | 54.09700 | -33.71768 | 35857 ft | 506 kts | 92° |
| 2026-04-25 19:47 | 54.09567 | -33.59841 | 35850 ft | 505 kts | 92° |
| 2026-04-25 19:48 | 54.09423 | -33.47958 | 35852 ft | 506 kts | 92° |
| 2026-04-25 19:48 | 54.09266 | -33.36001 | 35857 ft | 507 kts | 92° |
| 2026-04-25 19:49 | 54.09155 | -33.28007 | 35846 ft | 506 kts | 93° |
| 2026-04-25 19:49 | 54.08918 | -33.12107 | 35835 ft | 506 kts | 93° |
| 2026-04-25 19:50 | 54.08625 | -32.94161 | 35852 ft | 506 kts | 93° |
| 2026-04-25 19:51 | 54.08415 | -32.82233 | 35850 ft | 507 kts | 93° |
| 2026-04-25 19:51 | 54.08194 | -32.70305 | 35875 ft | 507 kts | 93° |
| 2026-04-25 19:52 | 54.07959 | -32.58309 | 35858 ft | 508 kts | 93° |
| 2026-04-25 19:52 | 54.07715 | -32.46404 | 35847 ft | 508 kts | 93° |
| 2026-04-25 19:53 | 54.07455 | -32.34385 | 35851 ft | 508 kts | 94° |
| 2026-04-25 19:53 | 54.07187 | -32.22451 | 35861 ft | 509 kts | 94° |
| 2026-04-25 19:54 | 54.06903 | -32.10399 | 35880 ft | 509 kts | 93° |
| 2026-04-25 19:54 | 54.06610 | -31.98472 | 35888 ft | 510 kts | 94° |
| 2026-04-25 19:55 | 54.06303 | -31.86430 | 35866 ft | 509 kts | 93° |
| 2026-04-25 19:55 | 54.05984 | -31.74416 | 35870 ft | 509 kts | 93° |
| 2026-04-25 19:56 | 54.05655 | -31.62459 | 35861 ft | 509 kts | 93° |
| 2026-04-25 19:56 | 54.05312 | -31.50447 | 35864 ft | 509 kts | 93° |
| 2026-04-25 19:57 | 54.04958 | -31.38443 | 35867 ft | 510 kts | 93° |
| 2026-04-25 19:57 | 54.04591 | -31.26450 | 35861 ft | 510 kts | 94° |
| 2026-04-25 19:58 | 54.04214 | -31.14493 | 35863 ft | 511 kts | 94° |
| 2026-04-25 19:58 | 54.03823 | -31.02454 | 35877 ft | 510 kts | 94° |
| 2026-04-25 19:59 | 54.03421 | -30.90479 | 35862 ft | 511 kts | 94° |
| 2026-04-25 19:59 | 54.03006 | -30.78444 | 35856 ft | 511 kts | 94° |
| 2026-04-25 20:00 | 54.02581 | -30.66496 | 35871 ft | 511 kts | 94° |
| 2026-04-25 20:00 | 54.02142 | -30.54489 | 35859 ft | 510 kts | 94° |
| 2026-04-25 20:01 | 54.01465 | -30.36548 | 35861 ft | 511 kts | 94° |
| 2026-04-25 20:01 | 54.00994 | -30.24499 | 35870 ft | 511 kts | 95° |
| 2026-04-25 20:02 | 54.00516 | -30.12563 | 35868 ft | 510 kts | 95° |
| 2026-04-25 20:02 | 54.00023 | -30.00551 | 35863 ft | 510 kts | 95° |
| 2026-04-25 20:03 | 54.00156 | -29.88512 | 35875 ft | 511 kts | 85° |
| 2026-04-25 20:03 | 54.00774 | -29.76540 | 35869 ft | 512 kts | 85° |
| 2026-04-25 20:04 | 54.01325 | -29.64536 | 35868 ft | 512 kts | 86° |
| 2026-04-25 20:04 | 54.01828 | -29.52490 | 35868 ft | 512 kts | 86° |
| 2026-04-25 20:05 | 54.02298 | -29.40509 | 35871 ft | 511 kts | 86° |
| 2026-04-25 20:05 | 54.02747 | -29.28445 | 35871 ft | 512 kts | 87° |
| 2026-04-25 20:06 | 54.03177 | -29.16402 | 35876 ft | 510 kts | 87° |
| 2026-04-25 20:06 | 54.03590 | -29.04398 | 35863 ft | 512 kts | 87° |
| 2026-04-25 20:07 | 54.03989 | -28.92395 | 35869 ft | 512 kts | 87° |
| 2026-04-25 20:07 | 54.04377 | -28.80371 | 35879 ft | 510 kts | 87° |
| 2026-04-25 20:08 | 54.04751 | -28.68342 | 35855 ft | 511 kts | 87° |
| 2026-04-25 20:08 | 54.05114 | -28.56285 | 35873 ft | 512 kts | 87° |
| 2026-04-25 20:09 | 54.05463 | -28.44298 | 35872 ft | 509 kts | 87° |
| 2026-04-25 20:09 | 54.05802 | -28.32243 | 35864 ft | 512 kts | 88° |
| 2026-04-25 20:10 | 54.06127 | -28.20241 | 35866 ft | 508 kts | 88° |
| 2026-04-25 20:10 | 54.06440 | -28.08260 | 35862 ft | 509 kts | 88° |
| 2026-04-25 20:11 | 54.06741 | -27.96285 | 35861 ft | 510 kts | 88° |
| 2026-04-25 20:11 | 54.07030 | -27.84242 | 35858 ft | 509 kts | 88° |
| 2026-04-25 20:12 | 54.07307 | -27.72283 | 35855 ft | 510 kts | 88° |
| 2026-04-25 20:12 | 54.07485 | -27.64280 | 35881 ft | 510 kts | 88° |
| 2026-04-25 20:13 | 54.07825 | -27.48278 | 35870 ft | 508 kts | 88° |
| 2026-04-25 20:13 | 54.08065 | -27.36345 | 35879 ft | 509 kts | 88° |
| 2026-04-25 20:14 | 54.08293 | -27.24432 | 35878 ft | 507 kts | 89° |
| 2026-04-25 20:14 | 54.08511 | -27.12393 | 35875 ft | 506 kts | 89° |
| 2026-04-25 20:15 | 54.08715 | -27.00484 | 35880 ft | 508 kts | 89° |
| 2026-04-25 20:15 | 54.08908 | -26.88480 | 35884 ft | 506 kts | 89° |
| 2026-04-25 20:16 | 54.09089 | -26.76559 | 35885 ft | 508 kts | 89° |
| 2026-04-25 20:16 | 54.09257 | -26.64649 | 35888 ft | 507 kts | 89° |
| 2026-04-25 20:17 | 54.09415 | -26.52647 | 35890 ft | 505 kts | 89° |
| 2026-04-25 20:17 | 54.09560 | -26.40725 | 35886 ft | 508 kts | 89° |
| 2026-04-25 20:18 | 54.09694 | -26.28737 | 35882 ft | 507 kts | 90° |
| 2026-04-25 20:18 | 54.09816 | -26.16779 | 35883 ft | 507 kts | 90° |
| 2026-04-25 20:19 | 54.09925 | -26.04854 | 35883 ft | 507 kts | 90° |
| 2026-04-25 20:19 | 54.10023 | -25.92947 | 35887 ft | 506 kts | 90° |
| 2026-04-25 20:20 | 54.10110 | -25.80960 | 35890 ft | 507 kts | 90° |
| 2026-04-25 20:20 | 54.10184 | -25.69020 | 35887 ft | 507 kts | 90° |
| 2026-04-25 20:21 | 54.10246 | -25.57078 | 35894 ft | 506 kts | 90° |
| 2026-04-25 20:21 | 54.10297 | -25.45120 | 35890 ft | 508 kts | 90° |
| 2026-04-25 20:22 | 54.10324 | -25.37097 | 35883 ft | 507 kts | 90° |
| 2026-04-25 20:22 | 54.10363 | -25.21215 | 35893 ft | 506 kts | 91° |
| 2026-04-25 20:23 | 54.10378 | -25.09201 | 35891 ft | 507 kts | 91° |
| 2026-04-25 20:23 | 54.10381 | -24.97297 | 35893 ft | 506 kts | 91° |
| 2026-04-25 20:24 | 54.10372 | -24.85327 | 35886 ft | 507 kts | 91° |
| 2026-04-25 20:24 | 54.10352 | -24.73333 | 35898 ft | 508 kts | 91° |
| 2026-04-25 20:25 | 54.10320 | -24.61462 | 35903 ft | 506 kts | 91° |
| 2026-04-25 20:25 | 54.10276 | -24.49520 | 35904 ft | 506 kts | 91° |
| 2026-04-25 20:26 | 54.10220 | -24.37554 | 35917 ft | 506 kts | 91° |
| 2026-04-25 20:26 | 54.10152 | -24.25639 | 35913 ft | 504 kts | 92° |
| 2026-04-25 20:27 | 54.10073 | -24.13748 | 35914 ft | 506 kts | 92° |
| 2026-04-25 20:27 | 54.09982 | -24.01865 | 35920 ft | 505 kts | 92° |
| 2026-04-25 20:28 | 54.09879 | -23.89946 | 35927 ft | 504 kts | 92° |
| 2026-04-25 20:28 | 54.09764 | -23.78000 | 35925 ft | 506 kts | 92° |
| 2026-04-25 20:29 | 54.09639 | -23.66168 | 35928 ft | 504 kts | 92° |
| 2026-04-25 20:29 | 54.09501 | -23.54257 | 35929 ft | 503 kts | 92° |
| 2026-04-25 20:30 | 54.09351 | -23.42374 | 35936 ft | 505 kts | 92° |
| 2026-04-25 20:30 | 54.09190 | -23.30491 | 35921 ft | 504 kts | 93° |
| 2026-04-25 20:31 | 54.09016 | -23.18559 | 35928 ft | 505 kts | 93° |
| 2026-04-25 20:31 | 54.08833 | -23.06752 | 35930 ft | 505 kts | 93° |
| 2026-04-25 20:32 | 54.08636 | -22.94812 | 35928 ft | 503 kts | 93° |
| 2026-04-25 20:32 | 54.08427 | -22.82913 | 35936 ft | 504 kts | 93° |
| 2026-04-25 20:33 | 54.08208 | -22.71065 | 35940 ft | 504 kts | 93° |
| 2026-04-25 20:33 | 54.08015 | -22.61114 | 35933 ft | 505 kts | 93° |
| 2026-04-25 20:34 | 54.07733 | -22.47299 | 35945 ft | 504 kts | 93° |
| 2026-04-25 20:34 | 54.07476 | -22.35344 | 35940 ft | 506 kts | 94° |
| 2026-04-25 20:35 | 54.07211 | -22.23501 | 35941 ft | 506 kts | 94° |
| 2026-04-25 20:35 | 54.06930 | -22.11538 | 35947 ft | 504 kts | 94° |
| 2026-04-25 20:36 | 54.06641 | -21.99676 | 35951 ft | 505 kts | 94° |
| 2026-04-25 20:36 | 54.06339 | -21.87815 | 35952 ft | 505 kts | 95° |
| 2026-04-25 20:37 | 54.06024 | -21.75888 | 35955 ft | 506 kts | 95° |
| 2026-04-25 20:37 | 54.05698 | -21.63988 | 35957 ft | 506 kts | 95° |
| 2026-04-25 20:38 | 54.05358 | -21.52048 | 35963 ft | 506 kts | 95° |
| 2026-04-25 20:38 | 54.05010 | -21.40177 | 35971 ft | 506 kts | 95° |
| 2026-04-25 20:39 | 54.04648 | -21.28265 | 35954 ft | 506 kts | 95° |
| 2026-04-25 20:39 | 54.04337 | -21.18323 | 35961 ft | 506 kts | 95° |
| 2026-04-25 20:40 | 54.03887 | -21.04413 | 35964 ft | 508 kts | 96° |
| 2026-04-25 20:40 | 54.03490 | -20.92511 | 35970 ft | 508 kts | 96° |
| 2026-04-25 20:41 | 54.03080 | -20.80580 | 35974 ft | 507 kts | 96° |
| 2026-04-25 20:41 | 54.02660 | -20.68684 | 35982 ft | 508 kts | 96° |
| 2026-04-25 20:42 | 54.02227 | -20.56792 | 35980 ft | 506 kts | 96° |
| 2026-04-25 20:42 | 54.01781 | -20.44854 | 35990 ft | 508 kts | 96° |
| 2026-04-25 20:43 | 54.01325 | -20.32944 | 35984 ft | 506 kts | 97° |
| 2026-04-25 20:43 | 54.00858 | -20.21071 | 35986 ft | 506 kts | 97° |
| 2026-04-25 20:44 | 54.00378 | -20.09176 | 35987 ft | 507 kts | 97° |
| 2026-04-25 20:44 | 53.99903 | -19.97305 | 35986 ft | 508 kts | 95° |
| 2026-04-25 20:45 | 54.00129 | -19.85365 | 35990 ft | 509 kts | 90° |
| 2026-04-25 20:45 | 54.00432 | -19.73355 | 36001 ft | 508 kts | 90° |
| 2026-04-25 20:46 | 54.00689 | -19.61399 | 36002 ft | 509 kts | 90° |
| 2026-04-25 20:46 | 54.00916 | -19.49400 | 36013 ft | 508 kts | 90° |
| 2026-04-25 20:47 | 54.01121 | -19.37419 | 36012 ft | 509 kts | 91° |
| 2026-04-25 20:47 | 54.01308 | -19.25447 | 36013 ft | 509 kts | 91° |
| 2026-04-25 20:48 | 54.01480 | -19.13543 | 36018 ft | 508 kts | 91° |
| 2026-04-25 20:48 | 54.01639 | -19.01477 | 36004 ft | 509 kts | 92° |
| 2026-04-25 20:49 | 54.01785 | -18.89557 | 36008 ft | 508 kts | 92° |
| 2026-04-25 20:49 | 54.01918 | -18.77588 | 36016 ft | 508 kts | 92° |
| 2026-04-25 20:50 | 54.02038 | -18.65684 | 36026 ft | 508 kts | 92° |
| 2026-04-25 20:50 | 54.02148 | -18.53649 | 36017 ft | 508 kts | 92° |
| 2026-04-25 20:51 | 54.02245 | -18.41710 | 36018 ft | 507 kts | 92° |
| 2026-04-25 20:51 | 54.02330 | -18.29726 | 36009 ft | 508 kts | 92° |
| 2026-04-25 20:52 | 54.02392 | -18.19830 | 36039 ft | 507 kts | 93° |
| 2026-04-25 20:52 | 54.02465 | -18.05817 | 36052 ft | 508 kts | 92° |
| 2026-04-25 20:53 | 54.02514 | -17.93872 | 36035 ft | 508 kts | 93° |
| 2026-04-25 20:53 | 54.02552 | -17.81879 | 36026 ft | 507 kts | 93° |
| 2026-04-25 20:54 | 54.02577 | -17.69998 | 36051 ft | 508 kts | 93° |
| 2026-04-25 20:54 | 54.02591 | -17.58010 | 36053 ft | 507 kts | 92° |
| 2026-04-25 20:55 | 54.02593 | -17.46108 | 36035 ft | 507 kts | 93° |
| 2026-04-25 20:55 | 54.02583 | -17.34177 | 36050 ft | 508 kts | 94° |
| 2026-04-25 20:56 | 54.02562 | -17.22259 | 36043 ft | 507 kts | 94° |
| 2026-04-25 20:56 | 54.02528 | -17.10261 | 36041 ft | 506 kts | 94° |
| 2026-04-25 20:57 | 54.02483 | -16.98348 | 36055 ft | 506 kts | 94° |
| 2026-04-25 20:57 | 54.02426 | -16.86436 | 36049 ft | 505 kts | 94° |
| 2026-04-25 20:58 | 54.02358 | -16.74521 | 36060 ft | 507 kts | 94° |
| 2026-04-25 20:58 | 54.02277 | -16.62641 | 36065 ft | 506 kts | 94° |
| 2026-04-25 20:59 | 54.02185 | -16.50720 | 36070 ft | 506 kts | 94° |
| 2026-04-25 20:59 | 54.02081 | -16.38828 | 36077 ft | 505 kts | 94° |
| 2026-04-25 21:00 | 54.02005 | -16.30843 | 36050 ft | 507 kts | 95° |
| 2026-04-25 21:01 | 54.01770 | -16.09094 | 36072 ft | 506 kts | 94° |
| 2026-04-25 21:01 | 54.01625 | -15.97201 | 36079 ft | 505 kts | 95° |
| 2026-04-25 21:02 | 54.01468 | -15.85278 | 36071 ft | 506 kts | 95° |
| 2026-04-25 21:02 | 54.01300 | -15.73385 | 36104 ft | 505 kts | 95° |
| 2026-04-25 21:03 | 54.01120 | -15.61533 | 36089 ft | 506 kts | 95° |
| 2026-04-25 21:03 | 54.00928 | -15.49631 | 36086 ft | 506 kts | 95° |
| 2026-04-25 21:04 | 54.00723 | -15.37695 | 35883 ft | 508 kts | 95° |
| 2026-04-25 21:04 | 54.00618 | -15.31792 | 35986 ft | 505 kts | 95° |
| 2026-04-25 21:04 | 54.00508 | -15.25798 | 36086 ft | 508 kts | 95° |
| 2026-04-25 21:05 | 54.00280 | -15.13894 | 36099 ft | 506 kts | 95° |
| 2026-04-25 21:05 | 54.00041 | -15.01977 | 36095 ft | 506 kts | 95° |
| 2026-04-25 21:06 | 53.99975 | -14.90080 | 36088 ft | 508 kts | 92° |
| 2026-04-25 21:06 | 54.00036 | -14.78100 | 36095 ft | 508 kts | 93° |
| 2026-04-25 21:07 | 54.00074 | -14.66124 | 36090 ft | 508 kts | 93° |
| 2026-04-25 21:07 | 54.00092 | -14.54180 | 36100 ft | 507 kts | 93° |
| 2026-04-25 21:08 | 54.00095 | -14.42259 | 36101 ft | 508 kts | 93° |
| 2026-04-25 21:08 | 54.00084 | -14.30315 | 36087 ft | 507 kts | 94° |
| 2026-04-25 21:09 | 54.00044 | -14.12411 | 36104 ft | 507 kts | 94° |
| 2026-04-25 21:09 | 53.99686 | -14.00511 | 36105 ft | 502 kts | 104° |
| 2026-04-25 21:10 | 53.97785 | -13.89309 | 36100 ft | 497 kts | 112° |
| 2026-04-25 21:10 | 53.95570 | -13.78246 | 36113 ft | 497 kts | 112° |
| 2026-04-25 21:11 | 53.93318 | -13.67139 | 36109 ft | 497 kts | 112° |
| 2026-04-25 21:11 | 53.91064 | -13.56110 | 36115 ft | 497 kts | 112° |
| 2026-04-25 21:12 | 53.88791 | -13.45066 | 36138 ft | 497 kts | 112° |
| 2026-04-25 21:12 | 53.86889 | -13.35882 | 36139 ft | 497 kts | 112° |
| 2026-04-25 21:13 | 53.84229 | -13.23110 | 36132 ft | 496 kts | 113° |
| 2026-04-25 21:13 | 53.81925 | -13.12115 | 36153 ft | 496 kts | 113° |
| 2026-04-25 21:14 | 53.79617 | -13.01166 | 36146 ft | 496 kts | 113° |
| 2026-04-25 21:14 | 53.77304 | -12.90248 | 36159 ft | 496 kts | 113° |
| 2026-04-25 21:15 | 53.74978 | -12.79334 | 36161 ft | 496 kts | 113° |
| 2026-04-25 21:15 | 53.72635 | -12.68395 | 36165 ft | 496 kts | 113° |
| 2026-04-25 21:16 | 53.70285 | -12.57482 | 36152 ft | 496 kts | 113° |
| 2026-04-25 21:16 | 53.67933 | -12.46619 | 36154 ft | 496 kts | 113° |
| 2026-04-25 21:17 | 53.65563 | -12.35733 | 36168 ft | 497 kts | 113° |
| 2026-04-25 21:17 | 53.63172 | -12.24802 | 36165 ft | 496 kts | 114° |
| 2026-04-25 21:18 | 53.60800 | -12.14020 | 36167 ft | 495 kts | 114° |
| 2026-04-25 21:18 | 53.58403 | -12.03181 | 36159 ft | 496 kts | 114° |
| 2026-04-25 21:19 | 53.56002 | -11.92377 | 36168 ft | 496 kts | 113° |
| 2026-04-25 21:19 | 53.53591 | -11.81588 | 36172 ft | 496 kts | 114° |
| 2026-04-25 21:20 | 53.51570 | -11.72588 | 36170 ft | 496 kts | 113° |
| 2026-04-25 21:20 | 53.48726 | -11.59980 | 36168 ft | 496 kts | 113° |
| 2026-04-25 21:21 | 53.46282 | -11.49208 | 36164 ft | 495 kts | 113° |
| 2026-04-25 21:21 | 53.43818 | -11.38406 | 36168 ft | 496 kts | 113° |
| 2026-04-25 21:22 | 53.41358 | -11.27673 | 36167 ft | 495 kts | 114° |
| 2026-04-25 21:22 | 53.38892 | -11.16970 | 36165 ft | 495 kts | 114° |
| 2026-04-25 21:23 | 53.36406 | -11.06235 | 36173 ft | 496 kts | 114° |
| 2026-04-25 21:23 | 53.33920 | -10.95555 | 36174 ft | 496 kts | 114° |
| 2026-04-25 21:24 | 53.31422 | -10.84871 | 36176 ft | 496 kts | 114° |
| 2026-04-25 21:24 | 53.28897 | -10.74130 | 36176 ft | 496 kts | 114° |
| 2026-04-25 21:25 | 53.26391 | -10.63521 | 36174 ft | 496 kts | 114° |
| 2026-04-25 21:25 | 53.23844 | -10.52795 | 36179 ft | 496 kts | 114° |
| 2026-04-25 21:26 | 53.21305 | -10.42154 | 36176 ft | 496 kts | 114° |
| 2026-04-25 21:26 | 53.18765 | -10.31558 | 36176 ft | 496 kts | 115° |
| 2026-04-25 21:27 | 53.16209 | -10.20947 | 36178 ft | 496 kts | 115° |
| 2026-04-25 21:27 | 53.13634 | -10.10311 | 36177 ft | 495 kts | 115° |
| 2026-04-25 21:28 | 53.11063 | -9.99743 | 36179 ft | 495 kts | 115° |
| 2026-04-25 21:28 | 53.08475 | -9.89158 | 36183 ft | 495 kts | 115° |
| 2026-04-25 21:29 | 53.05882 | -9.78602 | 36170 ft | 495 kts | 115° |
| 2026-04-25 21:29 | 53.03273 | -9.68031 | 36173 ft | 495 kts | 115° |
| 2026-04-25 21:30 | 53.00670 | -9.57536 | 36176 ft | 496 kts | 115° |
| 2026-04-25 21:30 | 52.98486 | -9.48768 | 36170 ft | 494 kts | 115° |
| 2026-04-25 21:31 | 52.95412 | -9.36486 | 36166 ft | 495 kts | 115° |
| 2026-04-25 21:31 | 52.92791 | -9.26068 | 36163 ft | 494 kts | 115° |
| 2026-04-25 21:32 | 52.90149 | -9.15613 | 36160 ft | 494 kts | 115° |
| 2026-04-25 21:32 | 52.87479 | -9.05099 | 36166 ft | 494 kts | 115° |
| 2026-04-25 21:33 | 52.84824 | -8.94692 | 36174 ft | 494 kts | 115° |
| 2026-04-25 21:33 | 52.82156 | -8.84285 | 36169 ft | 495 kts | 115° |
| 2026-04-25 21:34 | 52.79465 | -8.73833 | 36173 ft | 495 kts | 115° |
| 2026-04-25 21:34 | 52.76770 | -8.63415 | 36173 ft | 495 kts | 115° |
| 2026-04-25 21:35 | 52.74061 | -8.52994 | 36172 ft | 495 kts | 115° |
| 2026-04-25 21:35 | 52.71357 | -8.42640 | 36168 ft | 496 kts | 115° |
| 2026-04-25 21:36 | 52.68637 | -8.32266 | 36170 ft | 495 kts | 116° |
| 2026-04-25 21:36 | 52.65927 | -8.21984 | 36166 ft | 496 kts | 116° |
| 2026-04-25 21:37 | 52.63639 | -8.13334 | 36166 ft | 496 kts | 116° |
| 2026-04-25 21:37 | 52.60428 | -8.01256 | 36171 ft | 496 kts | 116° |
| 2026-04-25 21:38 | 52.57667 | -7.90918 | 36170 ft | 496 kts | 116° |
| 2026-04-25 21:38 | 52.54882 | -7.80538 | 36170 ft | 497 kts | 116° |
| 2026-04-25 21:39 | 52.52095 | -7.70198 | 36166 ft | 497 kts | 116° |
| 2026-04-25 21:39 | 52.49311 | -7.59911 | 36172 ft | 486 kts | 116° |
| 2026-04-25 21:40 | 52.47978 | -7.54997 | 36171 ft | 471 kts | 116° |
| 2026-04-25 21:40 | 52.46667 | -7.50178 | 36170 ft | 464 kts | 116° |
| 2026-04-25 21:40 | 52.44006 | -7.40442 | 36179 ft | 472 kts | 116° |
| 2026-04-25 21:41 | 52.41330 | -7.30684 | 36180 ft | 471 kts | 117° |
| 2026-04-25 21:41 | 52.38653 | -7.20966 | 36182 ft | 471 kts | 117° |
| 2026-04-25 21:42 | 52.35944 | -7.11171 | 36180 ft | 472 kts | 117° |
| 2026-04-25 21:42 | 52.33250 | -7.01472 | 36189 ft | 472 kts | 117° |
| 2026-04-25 21:43 | 52.30531 | -6.91719 | 36187 ft | 472 kts | 117° |
| 2026-04-25 21:43 | 52.27811 | -6.82007 | 36189 ft | 472 kts | 117° |
| 2026-04-25 21:44 | 52.25081 | -6.72297 | 36182 ft | 472 kts | 117° |
| 2026-04-25 21:45 | 52.20961 | -6.57720 | 36196 ft | 473 kts | 117° |
| 2026-04-25 21:45 | 52.18219 | -6.48069 | 36187 ft | 473 kts | 116° |
| 2026-04-25 21:46 | 52.15448 | -6.38356 | 36195 ft | 473 kts | 116° |
| 2026-04-25 21:46 | 52.12686 | -6.28716 | 36189 ft | 474 kts | 117° |
| 2026-04-25 21:47 | 52.09894 | -6.19009 | 36191 ft | 473 kts | 117° |
| 2026-04-25 21:47 | 52.07103 | -6.09344 | 36193 ft | 475 kts | 117° |
| 2026-04-25 21:48 | 52.04327 | -5.99610 | 36194 ft | 476 kts | 116° |
| 2026-04-25 21:48 | 52.01585 | -5.89858 | 36194 ft | 475 kts | 116° |
| 2026-04-25 21:49 | 51.98850 | -5.80173 | 36196 ft | 475 kts | 116° |
| 2026-04-25 21:49 | 51.96106 | -5.70492 | 36193 ft | 475 kts | 116° |
| 2026-04-25 21:50 | 51.93339 | -5.60770 | 36190 ft | 474 kts | 116° |
| 2026-04-25 21:50 | 51.90581 | -5.51120 | 36193 ft | 474 kts | 116° |
| 2026-04-25 21:51 | 51.87813 | -5.41474 | 36190 ft | 474 kts | 116° |
| 2026-04-25 21:51 | 51.85042 | -5.31857 | 36183 ft | 474 kts | 117° |
| 2026-04-25 21:52 | 51.82251 | -5.22211 | 36181 ft | 474 kts | 116° |
| 2026-04-25 21:52 | 51.79459 | -5.12597 | 36180 ft | 474 kts | 116° |
| 2026-04-25 21:53 | 51.76707 | -5.03008 | 36180 ft | 474 kts | 114° |
| 2026-04-25 21:53 | 51.74162 | -4.93246 | 36178 ft | 474 kts | 114° |
| 2026-04-25 21:54 | 51.71596 | -4.83452 | 36178 ft | 474 kts | 114° |
| 2026-04-25 21:54 | 51.69027 | -4.73721 | 36178 ft | 474 kts | 114° |
| 2026-04-25 21:55 | 51.66428 | -4.63937 | 36178 ft | 474 kts | 114° |
| 2026-04-25 21:55 | 51.63838 | -4.54238 | 36179 ft | 474 kts | 114° |
| 2026-04-25 21:56 | 51.61241 | -4.44558 | 36182 ft | 474 kts | 114° |
| 2026-04-25 21:56 | 51.58625 | -4.34853 | 36183 ft | 474 kts | 115° |